<?xml version="1.0" encoding="UTF-8" standalone="no" ?>
<gpx xmlns="http://www.topografix.com/GPX/1/1" xmlns:xsi="http://www.w3.org/2001/XMLSchema-instance" xsi:schemaLocation="http://www.topografix.com/GPX/1/1 http://www.topografix.com/GPX/1/1/gpx.xsd" version="1.1" creator="VisuGPX - https://www.visugpx.com">
  <metadata>
    <name>F26300 Barbières Beauregard Baret</name>
    <desc><![CDATA[File with points/tracks from Locus Map/4.6.1]]></desc>
  </metadata>
  <trk>
    <name><![CDATA[F26300 Barbières Beauregard Baret A8]]></name>
    <extensions>
      <line xmlns="http://www.topografix.com/GPX/gpx_style/0/2">
        <color>FF0000</color>
        <opacity>0.78</opacity>
        <width>3.0</width>
      </line>
    </extensions>
    <trkseg>
      <trkpt lat="44.95131" lon="5.14566">
        <ele>428.37</ele>
        <time>2022-02-09T12:44:38.000Z</time>
      </trkpt>
      <trkpt lat="44.95134" lon="5.14553">
        <ele>427.06</ele>
        <time>2022-02-09T12:46:30.000Z</time>
      </trkpt>
      <trkpt lat="44.9514" lon="5.14538">
        <ele>426.26</ele>
        <time>2022-02-09T12:46:40.000Z</time>
      </trkpt>
      <trkpt lat="44.95148" lon="5.14531">
        <ele>425.93</ele>
        <time>2022-02-09T12:46:50.000Z</time>
      </trkpt>
      <trkpt lat="44.95156" lon="5.14538">
        <ele>426.62</ele>
        <time>2022-02-09T12:47:00.000Z</time>
      </trkpt>
      <trkpt lat="44.95161" lon="5.14549">
        <ele>428.25</ele>
        <time>2022-02-09T12:47:10.000Z</time>
      </trkpt>
      <trkpt lat="44.95169" lon="5.14559">
        <ele>429.6</ele>
        <time>2022-02-09T12:47:20.000Z</time>
      </trkpt>
      <trkpt lat="44.95175" lon="5.14571">
        <ele>431.24</ele>
        <time>2022-02-09T12:47:30.000Z</time>
      </trkpt>
      <trkpt lat="44.9518" lon="5.14585">
        <ele>433.13</ele>
        <time>2022-02-09T12:47:40.000Z</time>
      </trkpt>
      <trkpt lat="44.95183" lon="5.14597">
        <ele>434.63</ele>
        <time>2022-02-09T12:47:51.000Z</time>
      </trkpt>
      <trkpt lat="44.95189" lon="5.14608">
        <ele>436.17</ele>
        <time>2022-02-09T12:48:01.000Z</time>
      </trkpt>
      <trkpt lat="44.95194" lon="5.1462">
        <ele>438.25</ele>
        <time>2022-02-09T12:48:11.000Z</time>
      </trkpt>
      <trkpt lat="44.952" lon="5.14632">
        <ele>439.59</ele>
        <time>2022-02-09T12:48:21.000Z</time>
      </trkpt>
      <trkpt lat="44.95202" lon="5.14645">
        <ele>440.79</ele>
        <time>2022-02-09T12:48:31.000Z</time>
      </trkpt>
      <trkpt lat="44.95204" lon="5.14657">
        <ele>442.58</ele>
        <time>2022-02-09T12:48:41.000Z</time>
      </trkpt>
      <trkpt lat="44.95205" lon="5.14672">
        <ele>444.31</ele>
        <time>2022-02-09T12:48:53.000Z</time>
      </trkpt>
      <trkpt lat="44.95205" lon="5.14686">
        <ele>445.28</ele>
        <time>2022-02-09T12:49:03.000Z</time>
      </trkpt>
      <trkpt lat="44.95206" lon="5.147">
        <ele>446.24</ele>
        <time>2022-02-09T12:49:13.000Z</time>
      </trkpt>
      <trkpt lat="44.9521" lon="5.14712">
        <ele>448.4</ele>
        <time>2022-02-09T12:49:25.000Z</time>
      </trkpt>
      <trkpt lat="44.95211" lon="5.14725">
        <ele>450.2</ele>
        <time>2022-02-09T12:50:49.000Z</time>
      </trkpt>
      <trkpt lat="44.95214" lon="5.14739">
        <ele>452.26</ele>
        <time>2022-02-09T12:50:59.000Z</time>
      </trkpt>
      <trkpt lat="44.95218" lon="5.14751">
        <ele>454.25</ele>
        <time>2022-02-09T12:51:10.000Z</time>
      </trkpt>
      <trkpt lat="44.95222" lon="5.14764">
        <ele>457</ele>
        <time>2022-02-09T12:51:22.000Z</time>
      </trkpt>
      <trkpt lat="44.95228" lon="5.14777">
        <ele>459.42</ele>
        <time>2022-02-09T12:51:32.000Z</time>
      </trkpt>
      <trkpt lat="44.95234" lon="5.14788">
        <ele>461.96</ele>
        <time>2022-02-09T12:51:43.000Z</time>
      </trkpt>
      <trkpt lat="44.95239" lon="5.148">
        <ele>463.25</ele>
        <time>2022-02-09T12:51:53.000Z</time>
      </trkpt>
      <trkpt lat="44.95246" lon="5.14812">
        <ele>464.25</ele>
        <time>2022-02-09T12:52:03.000Z</time>
      </trkpt>
      <trkpt lat="44.95253" lon="5.14822">
        <ele>465.4</ele>
        <time>2022-02-09T12:52:13.000Z</time>
      </trkpt>
      <trkpt lat="44.95258" lon="5.14835">
        <ele>466.37</ele>
        <time>2022-02-09T12:52:23.000Z</time>
      </trkpt>
      <trkpt lat="44.95265" lon="5.14848">
        <ele>466.82</ele>
        <time>2022-02-09T12:52:33.000Z</time>
      </trkpt>
      <trkpt lat="44.95271" lon="5.14863">
        <ele>467.24</ele>
        <time>2022-02-09T12:52:43.000Z</time>
      </trkpt>
      <trkpt lat="44.95277" lon="5.14877">
        <ele>467.5</ele>
        <time>2022-02-09T12:52:53.000Z</time>
      </trkpt>
      <trkpt lat="44.95282" lon="5.14893">
        <ele>467.69</ele>
        <time>2022-02-09T12:53:03.000Z</time>
      </trkpt>
      <trkpt lat="44.95288" lon="5.14909">
        <ele>467.68</ele>
        <time>2022-02-09T12:53:13.000Z</time>
      </trkpt>
      <trkpt lat="44.95292" lon="5.14924">
        <ele>468.41</ele>
        <time>2022-02-09T12:53:23.000Z</time>
      </trkpt>
      <trkpt lat="44.95296" lon="5.1494">
        <ele>468.49</ele>
        <time>2022-02-09T12:53:33.000Z</time>
      </trkpt>
      <trkpt lat="44.95302" lon="5.14955">
        <ele>469.1</ele>
        <time>2022-02-09T12:53:43.000Z</time>
      </trkpt>
      <trkpt lat="44.95306" lon="5.14971">
        <ele>469.2</ele>
        <time>2022-02-09T12:53:53.000Z</time>
      </trkpt>
      <trkpt lat="44.95312" lon="5.14986">
        <ele>470.01</ele>
        <time>2022-02-09T12:54:03.000Z</time>
      </trkpt>
      <trkpt lat="44.95318" lon="5.15001">
        <ele>470.06</ele>
        <time>2022-02-09T12:54:13.000Z</time>
      </trkpt>
      <trkpt lat="44.95323" lon="5.15014">
        <ele>471.19</ele>
        <time>2022-02-09T12:54:23.000Z</time>
      </trkpt>
      <trkpt lat="44.95327" lon="5.15028">
        <ele>471.99</ele>
        <time>2022-02-09T12:54:33.000Z</time>
      </trkpt>
      <trkpt lat="44.95333" lon="5.15043">
        <ele>473.55</ele>
        <time>2022-02-09T12:54:43.000Z</time>
      </trkpt>
      <trkpt lat="44.95339" lon="5.15058">
        <ele>474.28</ele>
        <time>2022-02-09T12:54:53.000Z</time>
      </trkpt>
      <trkpt lat="44.95344" lon="5.15073">
        <ele>475.26</ele>
        <time>2022-02-09T12:55:03.000Z</time>
      </trkpt>
      <trkpt lat="44.95349" lon="5.15089">
        <ele>476.05</ele>
        <time>2022-02-09T12:55:13.000Z</time>
      </trkpt>
      <trkpt lat="44.95354" lon="5.15106">
        <ele>476.47</ele>
        <time>2022-02-09T12:55:23.000Z</time>
      </trkpt>
      <trkpt lat="44.95356" lon="5.15119">
        <ele>477.02</ele>
        <time>2022-02-09T12:58:16.000Z</time>
      </trkpt>
      <trkpt lat="44.9536" lon="5.15133">
        <ele>477.99</ele>
        <time>2022-02-09T12:58:26.000Z</time>
      </trkpt>
      <trkpt lat="44.95363" lon="5.15149">
        <ele>479.47</ele>
        <time>2022-02-09T12:58:36.000Z</time>
      </trkpt>
      <trkpt lat="44.95371" lon="5.15164">
        <ele>480.21</ele>
        <time>2022-02-09T12:58:46.000Z</time>
      </trkpt>
      <trkpt lat="44.95379" lon="5.15176">
        <ele>480</ele>
        <time>2022-02-09T12:58:56.000Z</time>
      </trkpt>
      <trkpt lat="44.95386" lon="5.15186">
        <ele>479.16</ele>
        <time>2022-02-09T12:59:06.000Z</time>
      </trkpt>
      <trkpt lat="44.95395" lon="5.15197">
        <ele>478.63</ele>
        <time>2022-02-09T12:59:16.000Z</time>
      </trkpt>
      <trkpt lat="44.95398" lon="5.1521">
        <ele>478.32</ele>
        <time>2022-02-09T12:59:27.000Z</time>
      </trkpt>
      <trkpt lat="44.95391" lon="5.15227">
        <ele>477.96</ele>
        <time>2022-02-09T12:59:37.000Z</time>
      </trkpt>
      <trkpt lat="44.95384" lon="5.15247">
        <ele>477.61</ele>
        <time>2022-02-09T12:59:47.000Z</time>
      </trkpt>
      <trkpt lat="44.95375" lon="5.15261">
        <ele>477.22</ele>
        <time>2022-02-09T12:59:57.000Z</time>
      </trkpt>
      <trkpt lat="44.95371" lon="5.15274">
        <ele>477.47</ele>
        <time>2022-02-09T13:01:03.000Z</time>
      </trkpt>
      <trkpt lat="44.95371" lon="5.15289">
        <ele>478.41</ele>
        <time>2022-02-09T13:01:13.000Z</time>
      </trkpt>
      <trkpt lat="44.95369" lon="5.15303">
        <ele>480.33</ele>
        <time>2022-02-09T13:01:23.000Z</time>
      </trkpt>
      <trkpt lat="44.95365" lon="5.15316">
        <ele>481.34</ele>
        <time>2022-02-09T13:01:33.000Z</time>
      </trkpt>
      <trkpt lat="44.95358" lon="5.15327">
        <ele>481.5</ele>
        <time>2022-02-09T13:01:43.000Z</time>
      </trkpt>
      <trkpt lat="44.95351" lon="5.15337">
        <ele>483.24</ele>
        <time>2022-02-09T13:01:53.000Z</time>
      </trkpt>
      <trkpt lat="44.95343" lon="5.15352">
        <ele>484.35</ele>
        <time>2022-02-09T13:02:03.000Z</time>
      </trkpt>
      <trkpt lat="44.95337" lon="5.15362">
        <ele>485.3</ele>
        <time>2022-02-09T13:02:13.000Z</time>
      </trkpt>
      <trkpt lat="44.95335" lon="5.15376">
        <ele>487.19</ele>
        <time>2022-02-09T13:02:49.000Z</time>
      </trkpt>
      <trkpt lat="44.95331" lon="5.15389">
        <ele>488.37</ele>
        <time>2022-02-09T13:02:59.000Z</time>
      </trkpt>
      <trkpt lat="44.95324" lon="5.15399">
        <ele>489.9</ele>
        <time>2022-02-09T13:03:09.000Z</time>
      </trkpt>
      <trkpt lat="44.95319" lon="5.1541">
        <ele>491.6</ele>
        <time>2022-02-09T13:03:19.000Z</time>
      </trkpt>
      <trkpt lat="44.95313" lon="5.15423">
        <ele>492.7</ele>
        <time>2022-02-09T13:03:29.000Z</time>
      </trkpt>
      <trkpt lat="44.95307" lon="5.15436">
        <ele>493.92</ele>
        <time>2022-02-09T13:03:39.000Z</time>
      </trkpt>
      <trkpt lat="44.95301" lon="5.15448">
        <ele>495.5</ele>
        <time>2022-02-09T13:03:51.000Z</time>
      </trkpt>
      <trkpt lat="44.95301" lon="5.15461">
        <ele>497.91</ele>
        <time>2022-02-09T13:04:03.000Z</time>
      </trkpt>
      <trkpt lat="44.95296" lon="5.15473">
        <ele>498.98</ele>
        <time>2022-02-09T13:04:33.000Z</time>
      </trkpt>
      <trkpt lat="44.95297" lon="5.15486">
        <ele>499.6</ele>
        <time>2022-02-09T13:04:44.000Z</time>
      </trkpt>
      <trkpt lat="44.95299" lon="5.15499">
        <ele>500.75</ele>
        <time>2022-02-09T13:04:56.000Z</time>
      </trkpt>
      <trkpt lat="44.95302" lon="5.15515">
        <ele>501.63</ele>
        <time>2022-02-09T13:05:06.000Z</time>
      </trkpt>
      <trkpt lat="44.95304" lon="5.15531">
        <ele>503.13</ele>
        <time>2022-02-09T13:05:16.000Z</time>
      </trkpt>
      <trkpt lat="44.95306" lon="5.15544">
        <ele>504.2</ele>
        <time>2022-02-09T13:05:26.000Z</time>
      </trkpt>
      <trkpt lat="44.95307" lon="5.15558">
        <ele>505.13</ele>
        <time>2022-02-09T13:05:38.000Z</time>
      </trkpt>
      <trkpt lat="44.95309" lon="5.15573">
        <ele>505.72</ele>
        <time>2022-02-09T13:05:48.000Z</time>
      </trkpt>
      <trkpt lat="44.95312" lon="5.1559">
        <ele>505.92</ele>
        <time>2022-02-09T13:05:58.000Z</time>
      </trkpt>
      <trkpt lat="44.95315" lon="5.15605">
        <ele>506.83</ele>
        <time>2022-02-09T13:06:08.000Z</time>
      </trkpt>
      <trkpt lat="44.95319" lon="5.1562">
        <ele>507.95</ele>
        <time>2022-02-09T13:06:18.000Z</time>
      </trkpt>
      <trkpt lat="44.95322" lon="5.15635">
        <ele>508.82</ele>
        <time>2022-02-09T13:06:28.000Z</time>
      </trkpt>
      <trkpt lat="44.95327" lon="5.15651">
        <ele>509.19</ele>
        <time>2022-02-09T13:06:38.000Z</time>
      </trkpt>
      <trkpt lat="44.95331" lon="5.15665">
        <ele>509.85</ele>
        <time>2022-02-09T13:06:48.000Z</time>
      </trkpt>
      <trkpt lat="44.95337" lon="5.15679">
        <ele>510.8</ele>
        <time>2022-02-09T13:06:58.000Z</time>
      </trkpt>
      <trkpt lat="44.95345" lon="5.15692">
        <ele>511.29</ele>
        <time>2022-02-09T13:07:08.000Z</time>
      </trkpt>
      <trkpt lat="44.95349" lon="5.15707">
        <ele>512.49</ele>
        <time>2022-02-09T13:07:18.000Z</time>
      </trkpt>
      <trkpt lat="44.95355" lon="5.15721">
        <ele>513.16</ele>
        <time>2022-02-09T13:07:28.000Z</time>
      </trkpt>
      <trkpt lat="44.9536" lon="5.15733">
        <ele>514.11</ele>
        <time>2022-02-09T13:08:35.000Z</time>
      </trkpt>
      <trkpt lat="44.95364" lon="5.15754">
        <ele>513.26</ele>
        <time>2022-02-09T13:08:45.000Z</time>
      </trkpt>
      <trkpt lat="44.95366" lon="5.15771">
        <ele>511.74</ele>
        <time>2022-02-09T13:08:55.000Z</time>
      </trkpt>
      <trkpt lat="44.9537" lon="5.15789">
        <ele>511.89</ele>
        <time>2022-02-09T13:09:05.000Z</time>
      </trkpt>
      <trkpt lat="44.95374" lon="5.15806">
        <ele>513.38</ele>
        <time>2022-02-09T13:09:15.000Z</time>
      </trkpt>
      <trkpt lat="44.9538" lon="5.15822">
        <ele>514.48</ele>
        <time>2022-02-09T13:09:25.000Z</time>
      </trkpt>
      <trkpt lat="44.95387" lon="5.15839">
        <ele>514.93</ele>
        <time>2022-02-09T13:09:35.000Z</time>
      </trkpt>
      <trkpt lat="44.95389" lon="5.15853">
        <ele>515.9</ele>
        <time>2022-02-09T13:10:31.000Z</time>
      </trkpt>
      <trkpt lat="44.95392" lon="5.15867">
        <ele>516.87</ele>
        <time>2022-02-09T13:10:41.000Z</time>
      </trkpt>
      <trkpt lat="44.95398" lon="5.1588">
        <ele>518.67</ele>
        <time>2022-02-09T13:10:51.000Z</time>
      </trkpt>
      <trkpt lat="44.95401" lon="5.15894">
        <ele>520.61</ele>
        <time>2022-02-09T13:11:01.000Z</time>
      </trkpt>
      <trkpt lat="44.95401" lon="5.15906">
        <ele>522.56</ele>
        <time>2022-02-09T13:11:12.000Z</time>
      </trkpt>
      <trkpt lat="44.95403" lon="5.15923">
        <ele>523.25</ele>
        <time>2022-02-09T13:11:22.000Z</time>
      </trkpt>
      <trkpt lat="44.95403" lon="5.15941">
        <ele>524.04</ele>
        <time>2022-02-09T13:11:32.000Z</time>
      </trkpt>
      <trkpt lat="44.95403" lon="5.15957">
        <ele>524.44</ele>
        <time>2022-02-09T13:11:42.000Z</time>
      </trkpt>
      <trkpt lat="44.95401" lon="5.15971">
        <ele>525.67</ele>
        <time>2022-02-09T13:11:53.000Z</time>
      </trkpt>
      <trkpt lat="44.95402" lon="5.15986">
        <ele>526.82</ele>
        <time>2022-02-09T13:12:03.000Z</time>
      </trkpt>
      <trkpt lat="44.954" lon="5.16003">
        <ele>527.19</ele>
        <time>2022-02-09T13:12:13.000Z</time>
      </trkpt>
      <trkpt lat="44.95399" lon="5.16017">
        <ele>527.86</ele>
        <time>2022-02-09T13:12:23.000Z</time>
      </trkpt>
      <trkpt lat="44.95397" lon="5.16032">
        <ele>526.35</ele>
        <time>2022-02-09T13:12:33.000Z</time>
      </trkpt>
      <trkpt lat="44.95396" lon="5.16045">
        <ele>525.14</ele>
        <time>2022-02-09T13:12:43.000Z</time>
      </trkpt>
      <trkpt lat="44.954" lon="5.16058">
        <ele>528.61</ele>
        <time>2022-02-09T13:13:06.000Z</time>
      </trkpt>
      <trkpt lat="44.95401" lon="5.16071">
        <ele>527.34</ele>
        <time>2022-02-09T13:13:19.000Z</time>
      </trkpt>
      <trkpt lat="44.95395" lon="5.16081">
        <ele>523.2</ele>
        <time>2022-02-09T13:13:31.000Z</time>
      </trkpt>
      <trkpt lat="44.95391" lon="5.16092">
        <ele>521.33</ele>
        <time>2022-02-09T13:13:43.000Z</time>
      </trkpt>
      <trkpt lat="44.95387" lon="5.16105">
        <ele>520.25</ele>
        <time>2022-02-09T13:13:54.000Z</time>
      </trkpt>
      <trkpt lat="44.95385" lon="5.16118">
        <ele>521.18</ele>
        <time>2022-02-09T13:14:04.000Z</time>
      </trkpt>
      <trkpt lat="44.95387" lon="5.16131">
        <ele>522.5</ele>
        <time>2022-02-09T13:14:14.000Z</time>
      </trkpt>
      <trkpt lat="44.95391" lon="5.16144">
        <ele>524.04</ele>
        <time>2022-02-09T13:14:24.000Z</time>
      </trkpt>
      <trkpt lat="44.95394" lon="5.16157">
        <ele>525.29</ele>
        <time>2022-02-09T13:14:35.000Z</time>
      </trkpt>
      <trkpt lat="44.95392" lon="5.16173">
        <ele>527.4</ele>
        <time>2022-02-09T13:14:46.000Z</time>
      </trkpt>
      <trkpt lat="44.95392" lon="5.16187">
        <ele>528.82</ele>
        <time>2022-02-09T13:14:56.000Z</time>
      </trkpt>
      <trkpt lat="44.95391" lon="5.162">
        <ele>531.38</ele>
        <time>2022-02-09T13:15:08.000Z</time>
      </trkpt>
      <trkpt lat="44.95394" lon="5.16213">
        <ele>533.58</ele>
        <time>2022-02-09T13:15:20.000Z</time>
      </trkpt>
      <trkpt lat="44.95397" lon="5.16229">
        <ele>536.03</ele>
        <time>2022-02-09T13:15:32.000Z</time>
      </trkpt>
      <trkpt lat="44.95397" lon="5.16242">
        <ele>537.59</ele>
        <time>2022-02-09T13:15:42.000Z</time>
      </trkpt>
      <trkpt lat="44.95394" lon="5.16254">
        <ele>539.76</ele>
        <time>2022-02-09T13:15:53.000Z</time>
      </trkpt>
      <trkpt lat="44.95392" lon="5.16266">
        <ele>542.06</ele>
        <time>2022-02-09T13:16:04.000Z</time>
      </trkpt>
      <trkpt lat="44.9539" lon="5.1628">
        <ele>543.76</ele>
        <time>2022-02-09T13:16:14.000Z</time>
      </trkpt>
      <trkpt lat="44.95388" lon="5.16292">
        <ele>545.65</ele>
        <time>2022-02-09T13:16:26.000Z</time>
      </trkpt>
      <trkpt lat="44.95387" lon="5.16305">
        <ele>547.56</ele>
        <time>2022-02-09T13:16:37.000Z</time>
      </trkpt>
      <trkpt lat="44.95385" lon="5.16319">
        <ele>549.45</ele>
        <time>2022-02-09T13:16:50.000Z</time>
      </trkpt>
      <trkpt lat="44.95381" lon="5.16331">
        <ele>550.97</ele>
        <time>2022-02-09T13:17:01.000Z</time>
      </trkpt>
      <trkpt lat="44.95375" lon="5.16341">
        <ele>553.1</ele>
        <time>2022-02-09T13:17:13.000Z</time>
      </trkpt>
      <trkpt lat="44.95369" lon="5.16352">
        <ele>554.84</ele>
        <time>2022-02-09T13:17:24.000Z</time>
      </trkpt>
      <trkpt lat="44.95363" lon="5.16363">
        <ele>557.45</ele>
        <time>2022-02-09T13:17:39.000Z</time>
      </trkpt>
      <trkpt lat="44.95357" lon="5.16373">
        <ele>559.86</ele>
        <time>2022-02-09T13:17:53.000Z</time>
      </trkpt>
      <trkpt lat="44.95352" lon="5.16386">
        <ele>562.85</ele>
        <time>2022-02-09T13:18:10.000Z</time>
      </trkpt>
      <trkpt lat="44.95347" lon="5.16398">
        <ele>564.99</ele>
        <time>2022-02-09T13:18:21.000Z</time>
      </trkpt>
      <trkpt lat="44.95341" lon="5.16408">
        <ele>565.79</ele>
        <time>2022-02-09T13:18:31.000Z</time>
      </trkpt>
      <trkpt lat="44.95335" lon="5.16418">
        <ele>565.9</ele>
        <time>2022-02-09T13:18:41.000Z</time>
      </trkpt>
      <trkpt lat="44.95324" lon="5.16422">
        <ele>565.85</ele>
        <time>2022-02-09T13:18:51.000Z</time>
      </trkpt>
      <trkpt lat="44.95311" lon="5.16421">
        <ele>566.78</ele>
        <time>2022-02-09T13:19:01.000Z</time>
      </trkpt>
      <trkpt lat="44.95299" lon="5.16422">
        <ele>568.22</ele>
        <time>2022-02-09T13:19:11.000Z</time>
      </trkpt>
      <trkpt lat="44.95288" lon="5.16429">
        <ele>568.72</ele>
        <time>2022-02-09T13:19:21.000Z</time>
      </trkpt>
      <trkpt lat="44.95286" lon="5.16441">
        <ele>570.33</ele>
        <time>2022-02-09T13:19:32.000Z</time>
      </trkpt>
      <trkpt lat="44.95285" lon="5.16454">
        <ele>572.42</ele>
        <time>2022-02-09T13:19:43.000Z</time>
      </trkpt>
      <trkpt lat="44.95282" lon="5.16467">
        <ele>575.07</ele>
        <time>2022-02-09T13:19:55.000Z</time>
      </trkpt>
      <trkpt lat="44.9528" lon="5.1648">
        <ele>578.17</ele>
        <time>2022-02-09T13:20:11.000Z</time>
      </trkpt>
      <trkpt lat="44.95275" lon="5.16492">
        <ele>579.86</ele>
        <time>2022-02-09T13:20:22.000Z</time>
      </trkpt>
      <trkpt lat="44.95273" lon="5.16505">
        <ele>581.88</ele>
        <time>2022-02-09T13:20:35.000Z</time>
      </trkpt>
      <trkpt lat="44.95278" lon="5.16517">
        <ele>583.41</ele>
        <time>2022-02-09T13:20:47.000Z</time>
      </trkpt>
      <trkpt lat="44.95284" lon="5.16526">
        <ele>584.96</ele>
        <time>2022-02-09T13:20:57.000Z</time>
      </trkpt>
      <trkpt lat="44.95294" lon="5.16525">
        <ele>587.32</ele>
        <time>2022-02-09T13:21:12.000Z</time>
      </trkpt>
      <trkpt lat="44.95303" lon="5.1653">
        <ele>591.03</ele>
        <time>2022-02-09T13:21:32.000Z</time>
      </trkpt>
      <trkpt lat="44.95311" lon="5.16537">
        <ele>592.98</ele>
        <time>2022-02-09T13:24:38.000Z</time>
      </trkpt>
      <trkpt lat="44.95319" lon="5.16545">
        <ele>595.29</ele>
        <time>2022-02-09T13:24:50.000Z</time>
      </trkpt>
      <trkpt lat="44.95326" lon="5.16554">
        <ele>597.56</ele>
        <time>2022-02-09T13:25:01.000Z</time>
      </trkpt>
      <trkpt lat="44.95332" lon="5.16564">
        <ele>599.86</ele>
        <time>2022-02-09T13:25:12.000Z</time>
      </trkpt>
      <trkpt lat="44.95339" lon="5.16575">
        <ele>602.43</ele>
        <time>2022-02-09T13:25:25.000Z</time>
      </trkpt>
      <trkpt lat="44.95346" lon="5.16584">
        <ele>604.67</ele>
        <time>2022-02-09T13:25:37.000Z</time>
      </trkpt>
      <trkpt lat="44.95356" lon="5.16583">
        <ele>607.18</ele>
        <time>2022-02-09T13:25:50.000Z</time>
      </trkpt>
      <trkpt lat="44.95362" lon="5.16572">
        <ele>608.29</ele>
        <time>2022-02-09T13:26:00.000Z</time>
      </trkpt>
      <trkpt lat="44.95368" lon="5.16563">
        <ele>609.75</ele>
        <time>2022-02-09T13:26:12.000Z</time>
      </trkpt>
      <trkpt lat="44.95378" lon="5.16558">
        <ele>611.4</ele>
        <time>2022-02-09T13:26:25.000Z</time>
      </trkpt>
      <trkpt lat="44.95387" lon="5.16554">
        <ele>612.78</ele>
        <time>2022-02-09T13:26:35.000Z</time>
      </trkpt>
      <trkpt lat="44.95397" lon="5.16549">
        <ele>614.43</ele>
        <time>2022-02-09T13:26:45.000Z</time>
      </trkpt>
      <trkpt lat="44.95405" lon="5.16543">
        <ele>615.84</ele>
        <time>2022-02-09T13:26:55.000Z</time>
      </trkpt>
      <trkpt lat="44.9541" lon="5.16531">
        <ele>617.16</ele>
        <time>2022-02-09T13:27:06.000Z</time>
      </trkpt>
      <trkpt lat="44.95415" lon="5.1652">
        <ele>618.35</ele>
        <time>2022-02-09T13:27:16.000Z</time>
      </trkpt>
      <trkpt lat="44.95423" lon="5.16511">
        <ele>619.27</ele>
        <time>2022-02-09T13:27:31.000Z</time>
      </trkpt>
      <trkpt lat="44.9543" lon="5.16501">
        <ele>620.1</ele>
        <time>2022-02-09T13:27:41.000Z</time>
      </trkpt>
      <trkpt lat="44.95438" lon="5.16493">
        <ele>621.57</ele>
        <time>2022-02-09T13:29:10.000Z</time>
      </trkpt>
      <trkpt lat="44.95445" lon="5.16486">
        <ele>622.96</ele>
        <time>2022-02-09T13:29:20.000Z</time>
      </trkpt>
      <trkpt lat="44.95452" lon="5.16477">
        <ele>624.92</ele>
        <time>2022-02-09T13:29:31.000Z</time>
      </trkpt>
      <trkpt lat="44.9546" lon="5.1647">
        <ele>626.92</ele>
        <time>2022-02-09T13:29:49.000Z</time>
      </trkpt>
      <trkpt lat="44.95469" lon="5.16464">
        <ele>628.86</ele>
        <time>2022-02-09T13:30:02.000Z</time>
      </trkpt>
      <trkpt lat="44.95476" lon="5.16456">
        <ele>630.81</ele>
        <time>2022-02-09T13:30:13.000Z</time>
      </trkpt>
      <trkpt lat="44.95483" lon="5.16447">
        <ele>632.83</ele>
        <time>2022-02-09T13:30:30.000Z</time>
      </trkpt>
      <trkpt lat="44.95489" lon="5.16437">
        <ele>635</ele>
        <time>2022-02-09T13:30:44.000Z</time>
      </trkpt>
      <trkpt lat="44.95496" lon="5.16429">
        <ele>637.2</ele>
        <time>2022-02-09T13:30:57.000Z</time>
      </trkpt>
      <trkpt lat="44.95504" lon="5.1642">
        <ele>639.05</ele>
        <time>2022-02-09T13:31:10.000Z</time>
      </trkpt>
      <trkpt lat="44.95512" lon="5.16414">
        <ele>641.42</ele>
        <time>2022-02-09T13:31:24.000Z</time>
      </trkpt>
      <trkpt lat="44.95522" lon="5.16416">
        <ele>643.23</ele>
        <time>2022-02-09T13:31:37.000Z</time>
      </trkpt>
      <trkpt lat="44.95531" lon="5.16416">
        <ele>644.85</ele>
        <time>2022-02-09T13:31:47.000Z</time>
      </trkpt>
      <trkpt lat="44.95541" lon="5.16415">
        <ele>647.03</ele>
        <time>2022-02-09T13:32:00.000Z</time>
      </trkpt>
      <trkpt lat="44.9555" lon="5.16414">
        <ele>649.82</ele>
        <time>2022-02-09T13:32:18.000Z</time>
      </trkpt>
      <trkpt lat="44.95559" lon="5.16412">
        <ele>651.78</ele>
        <time>2022-02-09T13:32:30.000Z</time>
      </trkpt>
      <trkpt lat="44.95569" lon="5.1641">
        <ele>654.27</ele>
        <time>2022-02-09T13:32:44.000Z</time>
      </trkpt>
      <trkpt lat="44.95579" lon="5.16408">
        <ele>656.21</ele>
        <time>2022-02-09T13:32:59.000Z</time>
      </trkpt>
      <trkpt lat="44.95589" lon="5.16406">
        <ele>658.31</ele>
        <time>2022-02-09T13:33:09.000Z</time>
      </trkpt>
      <trkpt lat="44.95597" lon="5.16398">
        <ele>661.31</ele>
        <time>2022-02-09T13:33:23.000Z</time>
      </trkpt>
      <trkpt lat="44.95606" lon="5.16391">
        <ele>664.12</ele>
        <time>2022-02-09T13:33:38.000Z</time>
      </trkpt>
      <trkpt lat="44.95613" lon="5.16383">
        <ele>666.2</ele>
        <time>2022-02-09T13:33:52.000Z</time>
      </trkpt>
      <trkpt lat="44.95622" lon="5.16379">
        <ele>669.18</ele>
        <time>2022-02-09T13:34:07.000Z</time>
      </trkpt>
      <trkpt lat="44.95631" lon="5.16376">
        <ele>671.6</ele>
        <time>2022-02-09T13:34:23.000Z</time>
      </trkpt>
      <trkpt lat="44.9564" lon="5.16376">
        <ele>673.96</ele>
        <time>2022-02-09T13:34:35.000Z</time>
      </trkpt>
      <trkpt lat="44.95649" lon="5.16376">
        <ele>670.6</ele>
        <time>2022-02-09T13:34:48.000Z</time>
      </trkpt>
      <trkpt lat="44.95657" lon="5.16382">
        <ele>666.41</ele>
        <time>2022-02-09T13:35:01.000Z</time>
      </trkpt>
      <trkpt lat="44.95664" lon="5.16391">
        <ele>663.46</ele>
        <time>2022-02-09T13:35:13.000Z</time>
      </trkpt>
      <trkpt lat="44.95672" lon="5.16403">
        <ele>662.5</ele>
        <time>2022-02-09T13:35:24.000Z</time>
      </trkpt>
      <trkpt lat="44.95678" lon="5.16413">
        <ele>662.38</ele>
        <time>2022-02-09T13:35:35.000Z</time>
      </trkpt>
      <trkpt lat="44.95685" lon="5.16423">
        <ele>662.78</ele>
        <time>2022-02-09T13:35:45.000Z</time>
      </trkpt>
      <trkpt lat="44.95689" lon="5.16435">
        <ele>662.74</ele>
        <time>2022-02-09T13:35:56.000Z</time>
      </trkpt>
      <trkpt lat="44.9569" lon="5.16449">
        <ele>661.84</ele>
        <time>2022-02-09T13:36:09.000Z</time>
      </trkpt>
      <trkpt lat="44.95695" lon="5.1646">
        <ele>660.84</ele>
        <time>2022-02-09T13:36:19.000Z</time>
      </trkpt>
      <trkpt lat="44.95701" lon="5.1647">
        <ele>658.18</ele>
        <time>2022-02-09T13:36:30.000Z</time>
      </trkpt>
      <trkpt lat="44.95709" lon="5.16478">
        <ele>655.22</ele>
        <time>2022-02-09T13:36:41.000Z</time>
      </trkpt>
      <trkpt lat="44.95712" lon="5.16493">
        <ele>655.18</ele>
        <time>2022-02-09T13:38:20.000Z</time>
      </trkpt>
      <trkpt lat="44.95708" lon="5.16506">
        <ele>655.14</ele>
        <time>2022-02-09T13:39:21.000Z</time>
      </trkpt>
      <trkpt lat="44.95714" lon="5.16517">
        <ele>653.4</ele>
        <time>2022-02-09T13:39:45.000Z</time>
      </trkpt>
      <trkpt lat="44.95716" lon="5.1653">
        <ele>652.34</ele>
        <time>2022-02-09T13:40:05.000Z</time>
      </trkpt>
      <trkpt lat="44.95722" lon="5.16542">
        <ele>651.64</ele>
        <time>2022-02-09T13:40:15.000Z</time>
      </trkpt>
      <trkpt lat="44.95731" lon="5.16553">
        <ele>649.71</ele>
        <time>2022-02-09T13:40:25.000Z</time>
      </trkpt>
      <trkpt lat="44.95738" lon="5.16563">
        <ele>650.05</ele>
        <time>2022-02-09T13:40:48.000Z</time>
      </trkpt>
      <trkpt lat="44.95745" lon="5.16572">
        <ele>650.1</ele>
        <time>2022-02-09T13:41:03.000Z</time>
      </trkpt>
      <trkpt lat="44.95753" lon="5.1658">
        <ele>650.02</ele>
        <time>2022-02-09T13:41:17.000Z</time>
      </trkpt>
      <trkpt lat="44.95762" lon="5.16583">
        <ele>649.01</ele>
        <time>2022-02-09T13:41:31.000Z</time>
      </trkpt>
      <trkpt lat="44.95771" lon="5.16581">
        <ele>647.99</ele>
        <time>2022-02-09T13:41:44.000Z</time>
      </trkpt>
      <trkpt lat="44.95781" lon="5.16577">
        <ele>647.16</ele>
        <time>2022-02-09T13:41:57.000Z</time>
      </trkpt>
      <trkpt lat="44.9579" lon="5.16569">
        <ele>645.6</ele>
        <time>2022-02-09T13:42:07.000Z</time>
      </trkpt>
      <trkpt lat="44.95798" lon="5.16564">
        <ele>643.46</ele>
        <time>2022-02-09T13:42:17.000Z</time>
      </trkpt>
      <trkpt lat="44.95809" lon="5.16555">
        <ele>642.48</ele>
        <time>2022-02-09T13:42:27.000Z</time>
      </trkpt>
      <trkpt lat="44.95819" lon="5.16547">
        <ele>639.94</ele>
        <time>2022-02-09T13:42:37.000Z</time>
      </trkpt>
      <trkpt lat="44.95828" lon="5.16543">
        <ele>639.1</ele>
        <time>2022-02-09T13:42:47.000Z</time>
      </trkpt>
      <trkpt lat="44.95836" lon="5.16536">
        <ele>638.91</ele>
        <time>2022-02-09T13:42:58.000Z</time>
      </trkpt>
      <trkpt lat="44.95844" lon="5.1653">
        <ele>638.32</ele>
        <time>2022-02-09T13:43:08.000Z</time>
      </trkpt>
      <trkpt lat="44.95855" lon="5.16521">
        <ele>636.81</ele>
        <time>2022-02-09T13:43:18.000Z</time>
      </trkpt>
      <trkpt lat="44.95864" lon="5.1651">
        <ele>636.32</ele>
        <time>2022-02-09T13:43:28.000Z</time>
      </trkpt>
      <trkpt lat="44.95878" lon="5.16503">
        <ele>636.69</ele>
        <time>2022-02-09T13:43:38.000Z</time>
      </trkpt>
      <trkpt lat="44.95887" lon="5.16492">
        <ele>635.53</ele>
        <time>2022-02-09T13:43:48.000Z</time>
      </trkpt>
      <trkpt lat="44.95895" lon="5.16487">
        <ele>634.98</ele>
        <time>2022-02-09T13:43:58.000Z</time>
      </trkpt>
      <trkpt lat="44.95904" lon="5.16479">
        <ele>633.93</ele>
        <time>2022-02-09T13:44:08.000Z</time>
      </trkpt>
      <trkpt lat="44.95913" lon="5.16474">
        <ele>633.01</ele>
        <time>2022-02-09T13:44:18.000Z</time>
      </trkpt>
      <trkpt lat="44.95921" lon="5.16462">
        <ele>632.6</ele>
        <time>2022-02-09T13:44:28.000Z</time>
      </trkpt>
      <trkpt lat="44.95932" lon="5.16451">
        <ele>632.75</ele>
        <time>2022-02-09T13:44:38.000Z</time>
      </trkpt>
      <trkpt lat="44.95941" lon="5.1644">
        <ele>633.11</ele>
        <time>2022-02-09T13:44:48.000Z</time>
      </trkpt>
      <trkpt lat="44.9595" lon="5.16424">
        <ele>633.47</ele>
        <time>2022-02-09T13:44:58.000Z</time>
      </trkpt>
      <trkpt lat="44.9596" lon="5.16411">
        <ele>632.98</ele>
        <time>2022-02-09T13:45:08.000Z</time>
      </trkpt>
      <trkpt lat="44.95971" lon="5.16401">
        <ele>632.98</ele>
        <time>2022-02-09T13:45:18.000Z</time>
      </trkpt>
      <trkpt lat="44.9598" lon="5.16397">
        <ele>632.29</ele>
        <time>2022-02-09T13:45:30.000Z</time>
      </trkpt>
      <trkpt lat="44.9599" lon="5.16394">
        <ele>632.01</ele>
        <time>2022-02-09T13:45:41.000Z</time>
      </trkpt>
      <trkpt lat="44.95998" lon="5.1639">
        <ele>631.81</ele>
        <time>2022-02-09T13:45:52.000Z</time>
      </trkpt>
      <trkpt lat="44.96008" lon="5.16384">
        <ele>631.45</ele>
        <time>2022-02-09T13:46:02.000Z</time>
      </trkpt>
      <trkpt lat="44.96016" lon="5.16378">
        <ele>631.36</ele>
        <time>2022-02-09T13:46:12.000Z</time>
      </trkpt>
      <trkpt lat="44.96027" lon="5.16373">
        <ele>630.64</ele>
        <time>2022-02-09T13:46:22.000Z</time>
      </trkpt>
      <trkpt lat="44.96038" lon="5.16366">
        <ele>630.58</ele>
        <time>2022-02-09T13:46:32.000Z</time>
      </trkpt>
      <trkpt lat="44.96052" lon="5.16361">
        <ele>629.97</ele>
        <time>2022-02-09T13:46:42.000Z</time>
      </trkpt>
      <trkpt lat="44.96062" lon="5.1636">
        <ele>630.09</ele>
        <time>2022-02-09T13:46:52.000Z</time>
      </trkpt>
      <trkpt lat="44.96072" lon="5.16365">
        <ele>628.95</ele>
        <time>2022-02-09T13:47:02.000Z</time>
      </trkpt>
      <trkpt lat="44.9608" lon="5.16374">
        <ele>627.42</ele>
        <time>2022-02-09T13:47:12.000Z</time>
      </trkpt>
      <trkpt lat="44.96087" lon="5.16386">
        <ele>626.76</ele>
        <time>2022-02-09T13:47:22.000Z</time>
      </trkpt>
      <trkpt lat="44.96094" lon="5.16396">
        <ele>626.56</ele>
        <time>2022-02-09T13:47:32.000Z</time>
      </trkpt>
      <trkpt lat="44.96102" lon="5.16407">
        <ele>625.92</ele>
        <time>2022-02-09T13:47:42.000Z</time>
      </trkpt>
      <trkpt lat="44.96111" lon="5.16419">
        <ele>625.32</ele>
        <time>2022-02-09T13:47:52.000Z</time>
      </trkpt>
      <trkpt lat="44.96121" lon="5.16429">
        <ele>624.61</ele>
        <time>2022-02-09T13:48:02.000Z</time>
      </trkpt>
      <trkpt lat="44.9613" lon="5.16441">
        <ele>624</ele>
        <time>2022-02-09T13:48:12.000Z</time>
      </trkpt>
      <trkpt lat="44.96141" lon="5.16457">
        <ele>623.46</ele>
        <time>2022-02-09T13:48:22.000Z</time>
      </trkpt>
      <trkpt lat="44.96147" lon="5.16466">
        <ele>621.61</ele>
        <time>2022-02-09T13:49:10.000Z</time>
      </trkpt>
      <trkpt lat="44.96159" lon="5.16475">
        <ele>620.7</ele>
        <time>2022-02-09T13:49:20.000Z</time>
      </trkpt>
      <trkpt lat="44.96168" lon="5.16485">
        <ele>619.71</ele>
        <time>2022-02-09T13:49:30.000Z</time>
      </trkpt>
      <trkpt lat="44.96179" lon="5.16498">
        <ele>618.62</ele>
        <time>2022-02-09T13:49:40.000Z</time>
      </trkpt>
      <trkpt lat="44.96189" lon="5.1651">
        <ele>617.49</ele>
        <time>2022-02-09T13:49:50.000Z</time>
      </trkpt>
      <trkpt lat="44.962" lon="5.16522">
        <ele>616.37</ele>
        <time>2022-02-09T13:50:00.000Z</time>
      </trkpt>
      <trkpt lat="44.9621" lon="5.16535">
        <ele>614.48</ele>
        <time>2022-02-09T13:50:10.000Z</time>
      </trkpt>
      <trkpt lat="44.9622" lon="5.16543">
        <ele>612.49</ele>
        <time>2022-02-09T13:50:20.000Z</time>
      </trkpt>
      <trkpt lat="44.96228" lon="5.16553">
        <ele>610.5</ele>
        <time>2022-02-09T13:50:31.000Z</time>
      </trkpt>
      <trkpt lat="44.96235" lon="5.16565">
        <ele>609.21</ele>
        <time>2022-02-09T13:50:43.000Z</time>
      </trkpt>
      <trkpt lat="44.96243" lon="5.16577">
        <ele>607.85</ele>
        <time>2022-02-09T13:50:53.000Z</time>
      </trkpt>
      <trkpt lat="44.96251" lon="5.16589">
        <ele>606.61</ele>
        <time>2022-02-09T13:51:03.000Z</time>
      </trkpt>
      <trkpt lat="44.96259" lon="5.16596">
        <ele>605.93</ele>
        <time>2022-02-09T13:51:14.000Z</time>
      </trkpt>
      <trkpt lat="44.9627" lon="5.16607">
        <ele>605.02</ele>
        <time>2022-02-09T13:51:24.000Z</time>
      </trkpt>
      <trkpt lat="44.9628" lon="5.16617">
        <ele>603.65</ele>
        <time>2022-02-09T13:51:34.000Z</time>
      </trkpt>
      <trkpt lat="44.96291" lon="5.16625">
        <ele>602.08</ele>
        <time>2022-02-09T13:51:44.000Z</time>
      </trkpt>
      <trkpt lat="44.96299" lon="5.16632">
        <ele>600.44</ele>
        <time>2022-02-09T13:51:54.000Z</time>
      </trkpt>
      <trkpt lat="44.96308" lon="5.16639">
        <ele>598.71</ele>
        <time>2022-02-09T13:52:04.000Z</time>
      </trkpt>
      <trkpt lat="44.96317" lon="5.16645">
        <ele>596.64</ele>
        <time>2022-02-09T13:52:14.000Z</time>
      </trkpt>
      <trkpt lat="44.96326" lon="5.16648">
        <ele>595.17</ele>
        <time>2022-02-09T13:52:24.000Z</time>
      </trkpt>
      <trkpt lat="44.9634" lon="5.16652">
        <ele>593.2</ele>
        <time>2022-02-09T13:52:34.000Z</time>
      </trkpt>
      <trkpt lat="44.9635" lon="5.16656">
        <ele>590.9</ele>
        <time>2022-02-09T13:52:44.000Z</time>
      </trkpt>
      <trkpt lat="44.96361" lon="5.16659">
        <ele>588.23</ele>
        <time>2022-02-09T13:52:55.000Z</time>
      </trkpt>
      <trkpt lat="44.96372" lon="5.16664">
        <ele>585.8</ele>
        <time>2022-02-09T13:53:05.000Z</time>
      </trkpt>
      <trkpt lat="44.96382" lon="5.16669">
        <ele>582.81</ele>
        <time>2022-02-09T13:53:15.000Z</time>
      </trkpt>
      <trkpt lat="44.96391" lon="5.16669">
        <ele>577.94</ele>
        <time>2022-02-09T13:54:32.000Z</time>
      </trkpt>
      <trkpt lat="44.96402" lon="5.16675">
        <ele>575.32</ele>
        <time>2022-02-09T13:54:42.000Z</time>
      </trkpt>
      <trkpt lat="44.96412" lon="5.16679">
        <ele>572.61</ele>
        <time>2022-02-09T13:54:52.000Z</time>
      </trkpt>
      <trkpt lat="44.96422" lon="5.16685">
        <ele>569.99</ele>
        <time>2022-02-09T13:55:02.000Z</time>
      </trkpt>
      <trkpt lat="44.96432" lon="5.1669">
        <ele>567.89</ele>
        <time>2022-02-09T13:55:12.000Z</time>
      </trkpt>
      <trkpt lat="44.96443" lon="5.16692">
        <ele>564.94</ele>
        <time>2022-02-09T13:55:23.000Z</time>
      </trkpt>
      <trkpt lat="44.96453" lon="5.16693">
        <ele>563.16</ele>
        <time>2022-02-09T13:55:38.000Z</time>
      </trkpt>
      <trkpt lat="44.96461" lon="5.167">
        <ele>559.79</ele>
        <time>2022-02-09T13:55:48.000Z</time>
      </trkpt>
      <trkpt lat="44.96471" lon="5.16705">
        <ele>555.88</ele>
        <time>2022-02-09T13:55:58.000Z</time>
      </trkpt>
      <trkpt lat="44.96481" lon="5.16709">
        <ele>553.06</ele>
        <time>2022-02-09T13:56:08.000Z</time>
      </trkpt>
      <trkpt lat="44.9649" lon="5.16707">
        <ele>551.17</ele>
        <time>2022-02-09T13:56:19.000Z</time>
      </trkpt>
      <trkpt lat="44.96503" lon="5.16704">
        <ele>548.67</ele>
        <time>2022-02-09T13:56:29.000Z</time>
      </trkpt>
      <trkpt lat="44.96516" lon="5.167">
        <ele>546.49</ele>
        <time>2022-02-09T13:56:39.000Z</time>
      </trkpt>
      <trkpt lat="44.96528" lon="5.16699">
        <ele>545.1</ele>
        <time>2022-02-09T13:56:49.000Z</time>
      </trkpt>
      <trkpt lat="44.96538" lon="5.16691">
        <ele>543.32</ele>
        <time>2022-02-09T13:56:59.000Z</time>
      </trkpt>
      <trkpt lat="44.96547" lon="5.16691">
        <ele>542.96</ele>
        <time>2022-02-09T13:57:09.000Z</time>
      </trkpt>
      <trkpt lat="44.96557" lon="5.16691">
        <ele>538.71</ele>
        <time>2022-02-09T13:58:36.000Z</time>
      </trkpt>
      <trkpt lat="44.96548" lon="5.16695">
        <ele>539.31</ele>
        <time>2022-02-09T13:59:17.000Z</time>
      </trkpt>
      <trkpt lat="44.96539" lon="5.167">
        <ele>540.16</ele>
        <time>2022-02-09T13:59:27.000Z</time>
      </trkpt>
      <trkpt lat="44.9653" lon="5.16705">
        <ele>541.24</ele>
        <time>2022-02-09T13:59:37.000Z</time>
      </trkpt>
      <trkpt lat="44.96519" lon="5.1671">
        <ele>542.44</ele>
        <time>2022-02-09T13:59:47.000Z</time>
      </trkpt>
      <trkpt lat="44.96509" lon="5.16714">
        <ele>542.54</ele>
        <time>2022-02-09T13:59:57.000Z</time>
      </trkpt>
      <trkpt lat="44.96501" lon="5.16718">
        <ele>542.51</ele>
        <time>2022-02-09T14:00:07.000Z</time>
      </trkpt>
      <trkpt lat="44.9649" lon="5.16725">
        <ele>541.41</ele>
        <time>2022-02-09T14:00:17.000Z</time>
      </trkpt>
      <trkpt lat="44.96485" lon="5.16736">
        <ele>538.72</ele>
        <time>2022-02-09T14:00:27.000Z</time>
      </trkpt>
      <trkpt lat="44.96481" lon="5.16748">
        <ele>536.64</ele>
        <time>2022-02-09T14:00:37.000Z</time>
      </trkpt>
      <trkpt lat="44.96474" lon="5.16761">
        <ele>535.93</ele>
        <time>2022-02-09T14:00:47.000Z</time>
      </trkpt>
      <trkpt lat="44.96468" lon="5.16771">
        <ele>535.79</ele>
        <time>2022-02-09T14:00:57.000Z</time>
      </trkpt>
      <trkpt lat="44.96464" lon="5.16782">
        <ele>536.26</ele>
        <time>2022-02-09T14:01:07.000Z</time>
      </trkpt>
      <trkpt lat="44.96468" lon="5.16794">
        <ele>537.27</ele>
        <time>2022-02-09T14:01:17.000Z</time>
      </trkpt>
      <trkpt lat="44.96474" lon="5.16805">
        <ele>538.33</ele>
        <time>2022-02-09T14:01:27.000Z</time>
      </trkpt>
      <trkpt lat="44.9648" lon="5.16818">
        <ele>539.78</ele>
        <time>2022-02-09T14:01:37.000Z</time>
      </trkpt>
      <trkpt lat="44.96485" lon="5.16832">
        <ele>541.1</ele>
        <time>2022-02-09T14:01:47.000Z</time>
      </trkpt>
      <trkpt lat="44.9649" lon="5.16842">
        <ele>542.15</ele>
        <time>2022-02-09T14:01:58.000Z</time>
      </trkpt>
      <trkpt lat="44.96499" lon="5.16853">
        <ele>543.91</ele>
        <time>2022-02-09T14:02:08.000Z</time>
      </trkpt>
      <trkpt lat="44.9651" lon="5.16859">
        <ele>544.84</ele>
        <time>2022-02-09T14:02:18.000Z</time>
      </trkpt>
      <trkpt lat="44.9652" lon="5.16862">
        <ele>545.74</ele>
        <time>2022-02-09T14:02:28.000Z</time>
      </trkpt>
      <trkpt lat="44.96528" lon="5.1687">
        <ele>547.09</ele>
        <time>2022-02-09T14:03:27.000Z</time>
      </trkpt>
      <trkpt lat="44.96539" lon="5.16877">
        <ele>547.37</ele>
        <time>2022-02-09T14:03:37.000Z</time>
      </trkpt>
      <trkpt lat="44.96547" lon="5.16883">
        <ele>547.8</ele>
        <time>2022-02-09T14:03:47.000Z</time>
      </trkpt>
      <trkpt lat="44.96557" lon="5.16889">
        <ele>547.87</ele>
        <time>2022-02-09T14:03:57.000Z</time>
      </trkpt>
      <trkpt lat="44.9657" lon="5.16893">
        <ele>548.38</ele>
        <time>2022-02-09T14:04:07.000Z</time>
      </trkpt>
      <trkpt lat="44.96582" lon="5.16894">
        <ele>548.02</ele>
        <time>2022-02-09T14:04:17.000Z</time>
      </trkpt>
      <trkpt lat="44.96592" lon="5.16888">
        <ele>547.26</ele>
        <time>2022-02-09T14:04:27.000Z</time>
      </trkpt>
      <trkpt lat="44.96602" lon="5.16878">
        <ele>546.75</ele>
        <time>2022-02-09T14:04:37.000Z</time>
      </trkpt>
      <trkpt lat="44.96615" lon="5.16875">
        <ele>546.33</ele>
        <time>2022-02-09T14:04:47.000Z</time>
      </trkpt>
      <trkpt lat="44.96628" lon="5.16875">
        <ele>545.42</ele>
        <time>2022-02-09T14:04:57.000Z</time>
      </trkpt>
      <trkpt lat="44.9664" lon="5.16875">
        <ele>544.8</ele>
        <time>2022-02-09T14:05:07.000Z</time>
      </trkpt>
      <trkpt lat="44.96649" lon="5.16876">
        <ele>544.44</ele>
        <time>2022-02-09T14:06:55.000Z</time>
      </trkpt>
      <trkpt lat="44.96658" lon="5.16877">
        <ele>542.93</ele>
        <time>2022-02-09T14:07:05.000Z</time>
      </trkpt>
      <trkpt lat="44.96671" lon="5.16882">
        <ele>541.91</ele>
        <time>2022-02-09T14:07:15.000Z</time>
      </trkpt>
      <trkpt lat="44.96679" lon="5.16888">
        <ele>540.32</ele>
        <time>2022-02-09T14:07:26.000Z</time>
      </trkpt>
      <trkpt lat="44.96688" lon="5.16897">
        <ele>538.94</ele>
        <time>2022-02-09T14:07:36.000Z</time>
      </trkpt>
      <trkpt lat="44.96695" lon="5.16907">
        <ele>538.25</ele>
        <time>2022-02-09T14:07:46.000Z</time>
      </trkpt>
      <trkpt lat="44.96704" lon="5.16919">
        <ele>536.19</ele>
        <time>2022-02-09T14:07:56.000Z</time>
      </trkpt>
      <trkpt lat="44.96711" lon="5.1693">
        <ele>534.57</ele>
        <time>2022-02-09T14:08:06.000Z</time>
      </trkpt>
      <trkpt lat="44.96715" lon="5.16943">
        <ele>532.72</ele>
        <time>2022-02-09T14:08:16.000Z</time>
      </trkpt>
      <trkpt lat="44.96721" lon="5.16953">
        <ele>530.47</ele>
        <time>2022-02-09T14:08:28.000Z</time>
      </trkpt>
      <trkpt lat="44.96729" lon="5.16961">
        <ele>528.42</ele>
        <time>2022-02-09T14:08:40.000Z</time>
      </trkpt>
      <trkpt lat="44.96736" lon="5.16971">
        <ele>526.15</ele>
        <time>2022-02-09T14:08:51.000Z</time>
      </trkpt>
      <trkpt lat="44.96743" lon="5.1698">
        <ele>523.91</ele>
        <time>2022-02-09T14:09:02.000Z</time>
      </trkpt>
      <trkpt lat="44.9675" lon="5.16989">
        <ele>521.47</ele>
        <time>2022-02-09T14:09:13.000Z</time>
      </trkpt>
      <trkpt lat="44.96756" lon="5.17">
        <ele>519.22</ele>
        <time>2022-02-09T14:09:23.000Z</time>
      </trkpt>
      <trkpt lat="44.96761" lon="5.17015">
        <ele>517.17</ele>
        <time>2022-02-09T14:09:33.000Z</time>
      </trkpt>
      <trkpt lat="44.96768" lon="5.17023">
        <ele>515.17</ele>
        <time>2022-02-09T14:09:44.000Z</time>
      </trkpt>
      <trkpt lat="44.96777" lon="5.17027">
        <ele>514.25</ele>
        <time>2022-02-09T14:11:02.000Z</time>
      </trkpt>
      <trkpt lat="44.96786" lon="5.17033">
        <ele>512.35</ele>
        <time>2022-02-09T14:11:14.000Z</time>
      </trkpt>
      <trkpt lat="44.96797" lon="5.17037">
        <ele>510.68</ele>
        <time>2022-02-09T14:11:24.000Z</time>
      </trkpt>
      <trkpt lat="44.96808" lon="5.17044">
        <ele>509.15</ele>
        <time>2022-02-09T14:11:34.000Z</time>
      </trkpt>
      <trkpt lat="44.96817" lon="5.17049">
        <ele>506.88</ele>
        <time>2022-02-09T14:11:46.000Z</time>
      </trkpt>
      <trkpt lat="44.96827" lon="5.17055">
        <ele>504.91</ele>
        <time>2022-02-09T14:11:56.000Z</time>
      </trkpt>
      <trkpt lat="44.96837" lon="5.17061">
        <ele>503.1</ele>
        <time>2022-02-09T14:12:06.000Z</time>
      </trkpt>
      <trkpt lat="44.96848" lon="5.17066">
        <ele>501.17</ele>
        <time>2022-02-09T14:12:16.000Z</time>
      </trkpt>
      <trkpt lat="44.96862" lon="5.1707">
        <ele>499.3</ele>
        <time>2022-02-09T14:12:26.000Z</time>
      </trkpt>
      <trkpt lat="44.96875" lon="5.17076">
        <ele>496.99</ele>
        <time>2022-02-09T14:12:36.000Z</time>
      </trkpt>
      <trkpt lat="44.96886" lon="5.17081">
        <ele>494.96</ele>
        <time>2022-02-09T14:12:46.000Z</time>
      </trkpt>
      <trkpt lat="44.96895" lon="5.17086">
        <ele>492.98</ele>
        <time>2022-02-09T14:12:56.000Z</time>
      </trkpt>
      <trkpt lat="44.96908" lon="5.17092">
        <ele>490.88</ele>
        <time>2022-02-09T14:13:06.000Z</time>
      </trkpt>
      <trkpt lat="44.96919" lon="5.17098">
        <ele>488.86</ele>
        <time>2022-02-09T14:13:16.000Z</time>
      </trkpt>
      <trkpt lat="44.9693" lon="5.17104">
        <ele>487</ele>
        <time>2022-02-09T14:13:26.000Z</time>
      </trkpt>
      <trkpt lat="44.96941" lon="5.17114">
        <ele>485.84</ele>
        <time>2022-02-09T14:13:36.000Z</time>
      </trkpt>
      <trkpt lat="44.96954" lon="5.17119">
        <ele>485.04</ele>
        <time>2022-02-09T14:13:46.000Z</time>
      </trkpt>
      <trkpt lat="44.96963" lon="5.17121">
        <ele>484.49</ele>
        <time>2022-02-09T14:15:19.000Z</time>
      </trkpt>
      <trkpt lat="44.96975" lon="5.17127">
        <ele>484.16</ele>
        <time>2022-02-09T14:15:29.000Z</time>
      </trkpt>
      <trkpt lat="44.96967" lon="5.17134">
        <ele>482.4</ele>
        <time>2022-02-09T14:16:23.000Z</time>
      </trkpt>
      <trkpt lat="44.96958" lon="5.17129">
        <ele>481.7</ele>
        <time>2022-02-09T14:17:07.000Z</time>
      </trkpt>
      <trkpt lat="44.96949" lon="5.17125">
        <ele>481.07</ele>
        <time>2022-02-09T14:17:17.000Z</time>
      </trkpt>
      <trkpt lat="44.96939" lon="5.17121">
        <ele>480.38</ele>
        <time>2022-02-09T14:17:27.000Z</time>
      </trkpt>
      <trkpt lat="44.96928" lon="5.17116">
        <ele>479.85</ele>
        <time>2022-02-09T14:17:37.000Z</time>
      </trkpt>
      <trkpt lat="44.96918" lon="5.17113">
        <ele>478.8</ele>
        <time>2022-02-09T14:17:47.000Z</time>
      </trkpt>
      <trkpt lat="44.96908" lon="5.1711">
        <ele>478.04</ele>
        <time>2022-02-09T14:17:57.000Z</time>
      </trkpt>
      <trkpt lat="44.96897" lon="5.1711">
        <ele>476.75</ele>
        <time>2022-02-09T14:18:07.000Z</time>
      </trkpt>
      <trkpt lat="44.96883" lon="5.17111">
        <ele>475.81</ele>
        <time>2022-02-09T14:18:17.000Z</time>
      </trkpt>
      <trkpt lat="44.96873" lon="5.17111">
        <ele>475</ele>
        <time>2022-02-09T14:18:27.000Z</time>
      </trkpt>
      <trkpt lat="44.96864" lon="5.17117">
        <ele>474.43</ele>
        <time>2022-02-09T14:18:49.000Z</time>
      </trkpt>
      <trkpt lat="44.96852" lon="5.1712">
        <ele>473.35</ele>
        <time>2022-02-09T14:18:59.000Z</time>
      </trkpt>
      <trkpt lat="44.96841" lon="5.17124">
        <ele>472.37</ele>
        <time>2022-02-09T14:19:09.000Z</time>
      </trkpt>
      <trkpt lat="44.96832" lon="5.17129">
        <ele>471.31</ele>
        <time>2022-02-09T14:19:47.000Z</time>
      </trkpt>
      <trkpt lat="44.9682" lon="5.17136">
        <ele>470.38</ele>
        <time>2022-02-09T14:19:57.000Z</time>
      </trkpt>
      <trkpt lat="44.96809" lon="5.1714">
        <ele>469.22</ele>
        <time>2022-02-09T14:20:07.000Z</time>
      </trkpt>
      <trkpt lat="44.96798" lon="5.17147">
        <ele>467.63</ele>
        <time>2022-02-09T14:20:17.000Z</time>
      </trkpt>
      <trkpt lat="44.96791" lon="5.17158">
        <ele>466.23</ele>
        <time>2022-02-09T14:20:27.000Z</time>
      </trkpt>
      <trkpt lat="44.96785" lon="5.17174">
        <ele>465.2</ele>
        <time>2022-02-09T14:20:37.000Z</time>
      </trkpt>
      <trkpt lat="44.96779" lon="5.17188">
        <ele>464.64</ele>
        <time>2022-02-09T14:20:47.000Z</time>
      </trkpt>
      <trkpt lat="44.96768" lon="5.17192">
        <ele>464.42</ele>
        <time>2022-02-09T14:20:57.000Z</time>
      </trkpt>
      <trkpt lat="44.96759" lon="5.17188">
        <ele>463.13</ele>
        <time>2022-02-09T14:21:10.000Z</time>
      </trkpt>
      <trkpt lat="44.96749" lon="5.17183">
        <ele>461.17</ele>
        <time>2022-02-09T14:21:22.000Z</time>
      </trkpt>
      <trkpt lat="44.96733" lon="5.17184">
        <ele>459.89</ele>
        <time>2022-02-09T14:21:32.000Z</time>
      </trkpt>
      <trkpt lat="44.96722" lon="5.17189">
        <ele>458.67</ele>
        <time>2022-02-09T14:21:42.000Z</time>
      </trkpt>
      <trkpt lat="44.96719" lon="5.17201">
        <ele>458.04</ele>
        <time>2022-02-09T14:21:52.000Z</time>
      </trkpt>
      <trkpt lat="44.96714" lon="5.17216">
        <ele>457.35</ele>
        <time>2022-02-09T14:22:02.000Z</time>
      </trkpt>
      <trkpt lat="44.96709" lon="5.1723">
        <ele>456.52</ele>
        <time>2022-02-09T14:22:12.000Z</time>
      </trkpt>
      <trkpt lat="44.96706" lon="5.17245">
        <ele>455.2</ele>
        <time>2022-02-09T14:22:22.000Z</time>
      </trkpt>
      <trkpt lat="44.96709" lon="5.17257">
        <ele>454.57</ele>
        <time>2022-02-09T14:22:32.000Z</time>
      </trkpt>
      <trkpt lat="44.96714" lon="5.17268">
        <ele>453.85</ele>
        <time>2022-02-09T14:22:42.000Z</time>
      </trkpt>
      <trkpt lat="44.96721" lon="5.1728">
        <ele>453.01</ele>
        <time>2022-02-09T14:22:52.000Z</time>
      </trkpt>
      <trkpt lat="44.96727" lon="5.17294">
        <ele>452.25</ele>
        <time>2022-02-09T14:23:02.000Z</time>
      </trkpt>
      <trkpt lat="44.96734" lon="5.17311">
        <ele>451.05</ele>
        <time>2022-02-09T14:23:12.000Z</time>
      </trkpt>
      <trkpt lat="44.96738" lon="5.17323">
        <ele>449.84</ele>
        <time>2022-02-09T14:23:47.000Z</time>
      </trkpt>
      <trkpt lat="44.96742" lon="5.17337">
        <ele>449.15</ele>
        <time>2022-02-09T14:23:57.000Z</time>
      </trkpt>
      <trkpt lat="44.96747" lon="5.17356">
        <ele>447.83</ele>
        <time>2022-02-09T14:24:07.000Z</time>
      </trkpt>
      <trkpt lat="44.96749" lon="5.17375">
        <ele>446.98</ele>
        <time>2022-02-09T14:24:17.000Z</time>
      </trkpt>
      <trkpt lat="44.96749" lon="5.17393">
        <ele>446.44</ele>
        <time>2022-02-09T14:24:27.000Z</time>
      </trkpt>
      <trkpt lat="44.96747" lon="5.17405">
        <ele>445.44</ele>
        <time>2022-02-09T14:24:39.000Z</time>
      </trkpt>
      <trkpt lat="44.96743" lon="5.17419">
        <ele>445.21</ele>
        <time>2022-02-09T14:24:52.000Z</time>
      </trkpt>
      <trkpt lat="44.96734" lon="5.17431">
        <ele>444.13</ele>
        <time>2022-02-09T14:25:02.000Z</time>
      </trkpt>
      <trkpt lat="44.96726" lon="5.1745">
        <ele>442.89</ele>
        <time>2022-02-09T14:25:12.000Z</time>
      </trkpt>
      <trkpt lat="44.96719" lon="5.17469">
        <ele>441.71</ele>
        <time>2022-02-09T14:25:22.000Z</time>
      </trkpt>
      <trkpt lat="44.96713" lon="5.17485">
        <ele>440.47</ele>
        <time>2022-02-09T14:25:32.000Z</time>
      </trkpt>
      <trkpt lat="44.96711" lon="5.17499">
        <ele>439.1</ele>
        <time>2022-02-09T14:25:44.000Z</time>
      </trkpt>
      <trkpt lat="44.96707" lon="5.17511">
        <ele>438.13</ele>
        <time>2022-02-09T14:25:55.000Z</time>
      </trkpt>
      <trkpt lat="44.96702" lon="5.17522">
        <ele>436.98</ele>
        <time>2022-02-09T14:26:06.000Z</time>
      </trkpt>
      <trkpt lat="44.96698" lon="5.17537">
        <ele>436.23</ele>
        <time>2022-02-09T14:26:16.000Z</time>
      </trkpt>
      <trkpt lat="44.96689" lon="5.17552">
        <ele>435.64</ele>
        <time>2022-02-09T14:26:26.000Z</time>
      </trkpt>
      <trkpt lat="44.96679" lon="5.17566">
        <ele>434.79</ele>
        <time>2022-02-09T14:26:36.000Z</time>
      </trkpt>
      <trkpt lat="44.96671" lon="5.17583">
        <ele>433.27</ele>
        <time>2022-02-09T14:26:46.000Z</time>
      </trkpt>
      <trkpt lat="44.96662" lon="5.17591">
        <ele>432.06</ele>
        <time>2022-02-09T14:26:56.000Z</time>
      </trkpt>
      <trkpt lat="44.96657" lon="5.17603">
        <ele>431.07</ele>
        <time>2022-02-09T14:27:07.000Z</time>
      </trkpt>
      <trkpt lat="44.9665" lon="5.17613">
        <ele>429.42</ele>
        <time>2022-02-09T14:27:17.000Z</time>
      </trkpt>
      <trkpt lat="44.96643" lon="5.17621">
        <ele>428.46</ele>
        <time>2022-02-09T14:27:59.000Z</time>
      </trkpt>
      <trkpt lat="44.96636" lon="5.1763">
        <ele>426.31</ele>
        <time>2022-02-09T14:28:09.000Z</time>
      </trkpt>
      <trkpt lat="44.96632" lon="5.17647">
        <ele>424.47</ele>
        <time>2022-02-09T14:28:19.000Z</time>
      </trkpt>
      <trkpt lat="44.96631" lon="5.17661">
        <ele>424.24</ele>
        <time>2022-02-09T14:28:29.000Z</time>
      </trkpt>
      <trkpt lat="44.96631" lon="5.17677">
        <ele>424.15</ele>
        <time>2022-02-09T14:28:39.000Z</time>
      </trkpt>
      <trkpt lat="44.96628" lon="5.17692">
        <ele>424.61</ele>
        <time>2022-02-09T14:28:49.000Z</time>
      </trkpt>
      <trkpt lat="44.96619" lon="5.17703">
        <ele>425.46</ele>
        <time>2022-02-09T14:28:59.000Z</time>
      </trkpt>
      <trkpt lat="44.96609" lon="5.17711">
        <ele>425.63</ele>
        <time>2022-02-09T14:29:09.000Z</time>
      </trkpt>
      <trkpt lat="44.96598" lon="5.17717">
        <ele>425.66</ele>
        <time>2022-02-09T14:29:19.000Z</time>
      </trkpt>
      <trkpt lat="44.9659" lon="5.17722">
        <ele>426.51</ele>
        <time>2022-02-09T14:29:29.000Z</time>
      </trkpt>
      <trkpt lat="44.96583" lon="5.17732">
        <ele>428.35</ele>
        <time>2022-02-09T14:29:40.000Z</time>
      </trkpt>
      <trkpt lat="44.96581" lon="5.17745">
        <ele>430.44</ele>
        <time>2022-02-09T14:29:51.000Z</time>
      </trkpt>
      <trkpt lat="44.9658" lon="5.17762">
        <ele>431.66</ele>
        <time>2022-02-09T14:30:01.000Z</time>
      </trkpt>
      <trkpt lat="44.9658" lon="5.1778">
        <ele>433.26</ele>
        <time>2022-02-09T14:30:11.000Z</time>
      </trkpt>
      <trkpt lat="44.96582" lon="5.17795">
        <ele>435.39</ele>
        <time>2022-02-09T14:30:21.000Z</time>
      </trkpt>
      <trkpt lat="44.96584" lon="5.1781">
        <ele>437</ele>
        <time>2022-02-09T14:30:32.000Z</time>
      </trkpt>
      <trkpt lat="44.96586" lon="5.17824">
        <ele>438.73</ele>
        <time>2022-02-09T14:30:42.000Z</time>
      </trkpt>
      <trkpt lat="44.96589" lon="5.17837">
        <ele>440.69</ele>
        <time>2022-02-09T14:31:53.000Z</time>
      </trkpt>
      <trkpt lat="44.9659" lon="5.1785">
        <ele>442.52</ele>
        <time>2022-02-09T14:32:03.000Z</time>
      </trkpt>
      <trkpt lat="44.96591" lon="5.17866">
        <ele>444.34</ele>
        <time>2022-02-09T14:32:13.000Z</time>
      </trkpt>
      <trkpt lat="44.96588" lon="5.17882">
        <ele>445.7</ele>
        <time>2022-02-09T14:32:23.000Z</time>
      </trkpt>
      <trkpt lat="44.9659" lon="5.17896">
        <ele>446.54</ele>
        <time>2022-02-09T14:33:53.000Z</time>
      </trkpt>
      <trkpt lat="44.96594" lon="5.1791">
        <ele>447</ele>
        <time>2022-02-09T14:34:03.000Z</time>
      </trkpt>
      <trkpt lat="44.96594" lon="5.17929">
        <ele>447.34</ele>
        <time>2022-02-09T14:34:13.000Z</time>
      </trkpt>
      <trkpt lat="44.96594" lon="5.17944">
        <ele>447.59</ele>
        <time>2022-02-09T14:34:23.000Z</time>
      </trkpt>
      <trkpt lat="44.96593" lon="5.17962">
        <ele>448.51</ele>
        <time>2022-02-09T14:34:33.000Z</time>
      </trkpt>
      <trkpt lat="44.96594" lon="5.17976">
        <ele>449.13</ele>
        <time>2022-02-09T14:34:43.000Z</time>
      </trkpt>
      <trkpt lat="44.96582" lon="5.17981">
        <ele>449.53</ele>
        <time>2022-02-09T14:34:53.000Z</time>
      </trkpt>
      <trkpt lat="44.96571" lon="5.17981">
        <ele>450.54</ele>
        <time>2022-02-09T14:35:03.000Z</time>
      </trkpt>
      <trkpt lat="44.9656" lon="5.17983">
        <ele>452.03</ele>
        <time>2022-02-09T14:35:13.000Z</time>
      </trkpt>
      <trkpt lat="44.96556" lon="5.17994">
        <ele>453.86</ele>
        <time>2022-02-09T14:35:24.000Z</time>
      </trkpt>
      <trkpt lat="44.96561" lon="5.18005">
        <ele>456.62</ele>
        <time>2022-02-09T14:35:37.000Z</time>
      </trkpt>
      <trkpt lat="44.96568" lon="5.18014">
        <ele>458.34</ele>
        <time>2022-02-09T14:35:47.000Z</time>
      </trkpt>
      <trkpt lat="44.96575" lon="5.18025">
        <ele>461.01</ele>
        <time>2022-02-09T14:36:00.000Z</time>
      </trkpt>
      <trkpt lat="44.96583" lon="5.18037">
        <ele>462.32</ele>
        <time>2022-02-09T14:36:10.000Z</time>
      </trkpt>
      <trkpt lat="44.96589" lon="5.18048">
        <ele>463.67</ele>
        <time>2022-02-09T14:36:20.000Z</time>
      </trkpt>
      <trkpt lat="44.96593" lon="5.18062">
        <ele>465.43</ele>
        <time>2022-02-09T14:36:32.000Z</time>
      </trkpt>
      <trkpt lat="44.96599" lon="5.18072">
        <ele>467.06</ele>
        <time>2022-02-09T14:36:43.000Z</time>
      </trkpt>
      <trkpt lat="44.96604" lon="5.18062">
        <ele>467.86</ele>
        <time>2022-02-09T14:36:54.000Z</time>
      </trkpt>
      <trkpt lat="44.96613" lon="5.18054">
        <ele>468.77</ele>
        <time>2022-02-09T14:37:04.000Z</time>
      </trkpt>
      <trkpt lat="44.96619" lon="5.18064">
        <ele>470.89</ele>
        <time>2022-02-09T14:37:17.000Z</time>
      </trkpt>
      <trkpt lat="44.96623" lon="5.18075">
        <ele>472.6</ele>
        <time>2022-02-09T14:37:28.000Z</time>
      </trkpt>
      <trkpt lat="44.96626" lon="5.18088">
        <ele>474.42</ele>
        <time>2022-02-09T14:37:38.000Z</time>
      </trkpt>
      <trkpt lat="44.96626" lon="5.18101">
        <ele>475.95</ele>
        <time>2022-02-09T14:37:48.000Z</time>
      </trkpt>
      <trkpt lat="44.9663" lon="5.18114">
        <ele>478.31</ele>
        <time>2022-02-09T14:38:01.000Z</time>
      </trkpt>
      <trkpt lat="44.96634" lon="5.18126">
        <ele>480.64</ele>
        <time>2022-02-09T14:38:13.000Z</time>
      </trkpt>
      <trkpt lat="44.96638" lon="5.18138">
        <ele>482.72</ele>
        <time>2022-02-09T14:38:24.000Z</time>
      </trkpt>
      <trkpt lat="44.96642" lon="5.18149">
        <ele>484.92</ele>
        <time>2022-02-09T14:38:37.000Z</time>
      </trkpt>
      <trkpt lat="44.96645" lon="5.18161">
        <ele>486.97</ele>
        <time>2022-02-09T14:38:51.000Z</time>
      </trkpt>
      <trkpt lat="44.9665" lon="5.18175">
        <ele>489.07</ele>
        <time>2022-02-09T14:39:06.000Z</time>
      </trkpt>
      <trkpt lat="44.96654" lon="5.18187">
        <ele>491.1</ele>
        <time>2022-02-09T14:39:20.000Z</time>
      </trkpt>
      <trkpt lat="44.9666" lon="5.18199">
        <ele>493.41</ele>
        <time>2022-02-09T14:39:37.000Z</time>
      </trkpt>
      <trkpt lat="44.96667" lon="5.18209">
        <ele>496.13</ele>
        <time>2022-02-09T14:39:55.000Z</time>
      </trkpt>
      <trkpt lat="44.96673" lon="5.18218">
        <ele>498.18</ele>
        <time>2022-02-09T14:40:07.000Z</time>
      </trkpt>
      <trkpt lat="44.96671" lon="5.18231">
        <ele>499.81</ele>
        <time>2022-02-09T14:40:21.000Z</time>
      </trkpt>
      <trkpt lat="44.96662" lon="5.18238">
        <ele>501.19</ele>
        <time>2022-02-09T14:40:33.000Z</time>
      </trkpt>
      <trkpt lat="44.96655" lon="5.18245">
        <ele>502.54</ele>
        <time>2022-02-09T14:40:43.000Z</time>
      </trkpt>
      <trkpt lat="44.96654" lon="5.18258">
        <ele>503.32</ele>
        <time>2022-02-09T14:40:54.000Z</time>
      </trkpt>
      <trkpt lat="44.96663" lon="5.18261">
        <ele>504.69</ele>
        <time>2022-02-09T14:43:44.000Z</time>
      </trkpt>
      <trkpt lat="44.96669" lon="5.1827">
        <ele>506.96</ele>
        <time>2022-02-09T14:43:57.000Z</time>
      </trkpt>
      <trkpt lat="44.96676" lon="5.18282">
        <ele>508.11</ele>
        <time>2022-02-09T14:44:07.000Z</time>
      </trkpt>
      <trkpt lat="44.96682" lon="5.18292">
        <ele>510.01</ele>
        <time>2022-02-09T14:44:18.000Z</time>
      </trkpt>
      <trkpt lat="44.96688" lon="5.18303">
        <ele>511.24</ele>
        <time>2022-02-09T14:44:29.000Z</time>
      </trkpt>
      <trkpt lat="44.96693" lon="5.18314">
        <ele>512.94</ele>
        <time>2022-02-09T14:44:40.000Z</time>
      </trkpt>
      <trkpt lat="44.96699" lon="5.18326">
        <ele>514.09</ele>
        <time>2022-02-09T14:44:50.000Z</time>
      </trkpt>
      <trkpt lat="44.96705" lon="5.18338">
        <ele>515.03</ele>
        <time>2022-02-09T14:45:00.000Z</time>
      </trkpt>
      <trkpt lat="44.96712" lon="5.18349">
        <ele>515.77</ele>
        <time>2022-02-09T14:45:10.000Z</time>
      </trkpt>
      <trkpt lat="44.96718" lon="5.18361">
        <ele>517.26</ele>
        <time>2022-02-09T14:45:20.000Z</time>
      </trkpt>
      <trkpt lat="44.96724" lon="5.18374">
        <ele>518.9</ele>
        <time>2022-02-09T14:45:30.000Z</time>
      </trkpt>
      <trkpt lat="44.96727" lon="5.18389">
        <ele>520.39</ele>
        <time>2022-02-09T14:45:40.000Z</time>
      </trkpt>
      <trkpt lat="44.96732" lon="5.18404">
        <ele>521.7</ele>
        <time>2022-02-09T14:45:50.000Z</time>
      </trkpt>
      <trkpt lat="44.96735" lon="5.18417">
        <ele>523.2</ele>
        <time>2022-02-09T14:46:00.000Z</time>
      </trkpt>
      <trkpt lat="44.96741" lon="5.18431">
        <ele>525</ele>
        <time>2022-02-09T14:46:10.000Z</time>
      </trkpt>
      <trkpt lat="44.96748" lon="5.18441">
        <ele>526.9</ele>
        <time>2022-02-09T14:46:20.000Z</time>
      </trkpt>
      <trkpt lat="44.96757" lon="5.18445">
        <ele>529.75</ele>
        <time>2022-02-09T14:46:33.000Z</time>
      </trkpt>
      <trkpt lat="44.96766" lon="5.1845">
        <ele>532.73</ele>
        <time>2022-02-09T14:46:46.000Z</time>
      </trkpt>
      <trkpt lat="44.96776" lon="5.18456">
        <ele>535.19</ele>
        <time>2022-02-09T14:46:57.000Z</time>
      </trkpt>
      <trkpt lat="44.96784" lon="5.18462">
        <ele>537.11</ele>
        <time>2022-02-09T14:47:07.000Z</time>
      </trkpt>
      <trkpt lat="44.96792" lon="5.18468">
        <ele>539.42</ele>
        <time>2022-02-09T14:47:17.000Z</time>
      </trkpt>
      <trkpt lat="44.96801" lon="5.18477">
        <ele>540.85</ele>
        <time>2022-02-09T14:47:27.000Z</time>
      </trkpt>
      <trkpt lat="44.9681" lon="5.18482">
        <ele>542.67</ele>
        <time>2022-02-09T14:47:37.000Z</time>
      </trkpt>
      <trkpt lat="44.96821" lon="5.18482">
        <ele>545.78</ele>
        <time>2022-02-09T14:47:50.000Z</time>
      </trkpt>
      <trkpt lat="44.96831" lon="5.18481">
        <ele>548.47</ele>
        <time>2022-02-09T14:48:03.000Z</time>
      </trkpt>
      <trkpt lat="44.96839" lon="5.18472">
        <ele>551.44</ele>
        <time>2022-02-09T14:48:16.000Z</time>
      </trkpt>
      <trkpt lat="44.96846" lon="5.18465">
        <ele>554.63</ele>
        <time>2022-02-09T14:48:30.000Z</time>
      </trkpt>
      <trkpt lat="44.96855" lon="5.18459">
        <ele>557.61</ele>
        <time>2022-02-09T14:48:43.000Z</time>
      </trkpt>
      <trkpt lat="44.96865" lon="5.18454">
        <ele>560.54</ele>
        <time>2022-02-09T14:48:56.000Z</time>
      </trkpt>
      <trkpt lat="44.96874" lon="5.18449">
        <ele>562.4</ele>
        <time>2022-02-09T14:49:06.000Z</time>
      </trkpt>
      <trkpt lat="44.96883" lon="5.18443">
        <ele>564.29</ele>
        <time>2022-02-09T14:49:16.000Z</time>
      </trkpt>
      <trkpt lat="44.96892" lon="5.18438">
        <ele>567</ele>
        <time>2022-02-09T14:49:28.000Z</time>
      </trkpt>
      <trkpt lat="44.96901" lon="5.18432">
        <ele>568.65</ele>
        <time>2022-02-09T14:49:38.000Z</time>
      </trkpt>
      <trkpt lat="44.96908" lon="5.18422">
        <ele>569.88</ele>
        <time>2022-02-09T14:49:48.000Z</time>
      </trkpt>
      <trkpt lat="44.96916" lon="5.18417">
        <ele>572.38</ele>
        <time>2022-02-09T14:50:03.000Z</time>
      </trkpt>
      <trkpt lat="44.96925" lon="5.1842">
        <ele>573.95</ele>
        <time>2022-02-09T14:50:13.000Z</time>
      </trkpt>
      <trkpt lat="44.96934" lon="5.18429">
        <ele>575.09</ele>
        <time>2022-02-09T14:50:23.000Z</time>
      </trkpt>
      <trkpt lat="44.96943" lon="5.18441">
        <ele>575.84</ele>
        <time>2022-02-09T14:50:33.000Z</time>
      </trkpt>
      <trkpt lat="44.96951" lon="5.18453">
        <ele>576.96</ele>
        <time>2022-02-09T14:50:43.000Z</time>
      </trkpt>
      <trkpt lat="44.9696" lon="5.18468">
        <ele>577.33</ele>
        <time>2022-02-09T14:50:53.000Z</time>
      </trkpt>
      <trkpt lat="44.96966" lon="5.18482">
        <ele>577.82</ele>
        <time>2022-02-09T14:51:03.000Z</time>
      </trkpt>
      <trkpt lat="44.9697" lon="5.185">
        <ele>578.78</ele>
        <time>2022-02-09T14:51:13.000Z</time>
      </trkpt>
      <trkpt lat="44.96972" lon="5.1852">
        <ele>579.36</ele>
        <time>2022-02-09T14:51:23.000Z</time>
      </trkpt>
      <trkpt lat="44.96977" lon="5.18537">
        <ele>579.35</ele>
        <time>2022-02-09T14:51:33.000Z</time>
      </trkpt>
      <trkpt lat="44.96984" lon="5.1855">
        <ele>579.66</ele>
        <time>2022-02-09T14:51:43.000Z</time>
      </trkpt>
      <trkpt lat="44.96989" lon="5.18563">
        <ele>580.56</ele>
        <time>2022-02-09T14:51:53.000Z</time>
      </trkpt>
      <trkpt lat="44.96993" lon="5.18579">
        <ele>581.58</ele>
        <time>2022-02-09T14:52:03.000Z</time>
      </trkpt>
      <trkpt lat="44.96996" lon="5.18595">
        <ele>582.94</ele>
        <time>2022-02-09T14:52:13.000Z</time>
      </trkpt>
      <trkpt lat="44.96997" lon="5.18611">
        <ele>584.18</ele>
        <time>2022-02-09T14:52:23.000Z</time>
      </trkpt>
      <trkpt lat="44.96999" lon="5.18626">
        <ele>586.1</ele>
        <time>2022-02-09T14:52:33.000Z</time>
      </trkpt>
      <trkpt lat="44.97" lon="5.1864">
        <ele>588.16</ele>
        <time>2022-02-09T14:52:44.000Z</time>
      </trkpt>
      <trkpt lat="44.97004" lon="5.18652">
        <ele>589.93</ele>
        <time>2022-02-09T14:52:54.000Z</time>
      </trkpt>
      <trkpt lat="44.97008" lon="5.18664">
        <ele>591.99</ele>
        <time>2022-02-09T14:53:04.000Z</time>
      </trkpt>
      <trkpt lat="44.97014" lon="5.18678">
        <ele>593.31</ele>
        <time>2022-02-09T14:53:14.000Z</time>
      </trkpt>
      <trkpt lat="44.9702" lon="5.18687">
        <ele>594.56</ele>
        <time>2022-02-09T14:53:25.000Z</time>
      </trkpt>
      <trkpt lat="44.97027" lon="5.18696">
        <ele>597.02</ele>
        <time>2022-02-09T14:53:39.000Z</time>
      </trkpt>
      <trkpt lat="44.97035" lon="5.18705">
        <ele>598.5</ele>
        <time>2022-02-09T14:53:49.000Z</time>
      </trkpt>
      <trkpt lat="44.97038" lon="5.1872">
        <ele>600.11</ele>
        <time>2022-02-09T14:53:59.000Z</time>
      </trkpt>
      <trkpt lat="44.97038" lon="5.18733">
        <ele>603.28</ele>
        <time>2022-02-09T14:54:14.000Z</time>
      </trkpt>
      <trkpt lat="44.97033" lon="5.18744">
        <ele>606.32</ele>
        <time>2022-02-09T14:54:29.000Z</time>
      </trkpt>
      <trkpt lat="44.97026" lon="5.18752">
        <ele>609.25</ele>
        <time>2022-02-09T14:54:41.000Z</time>
      </trkpt>
      <trkpt lat="44.97019" lon="5.18761">
        <ele>611.39</ele>
        <time>2022-02-09T14:54:51.000Z</time>
      </trkpt>
      <trkpt lat="44.97011" lon="5.1877">
        <ele>612.87</ele>
        <time>2022-02-09T14:55:02.000Z</time>
      </trkpt>
      <trkpt lat="44.97003" lon="5.18773">
        <ele>614.17</ele>
        <time>2022-02-09T14:55:12.000Z</time>
      </trkpt>
      <trkpt lat="44.96994" lon="5.18776">
        <ele>616.75</ele>
        <time>2022-02-09T14:55:26.000Z</time>
      </trkpt>
      <trkpt lat="44.96984" lon="5.18781">
        <ele>618.38</ele>
        <time>2022-02-09T14:55:36.000Z</time>
      </trkpt>
      <trkpt lat="44.96975" lon="5.18784">
        <ele>620.6</ele>
        <time>2022-02-09T14:55:47.000Z</time>
      </trkpt>
      <trkpt lat="44.96965" lon="5.18782">
        <ele>623.32</ele>
        <time>2022-02-09T14:56:01.000Z</time>
      </trkpt>
      <trkpt lat="44.96955" lon="5.18778">
        <ele>625.46</ele>
        <time>2022-02-09T14:56:16.000Z</time>
      </trkpt>
      <trkpt lat="44.96945" lon="5.18774">
        <ele>627.94</ele>
        <time>2022-02-09T14:56:29.000Z</time>
      </trkpt>
      <trkpt lat="44.96935" lon="5.18776">
        <ele>630.42</ele>
        <time>2022-02-09T14:56:44.000Z</time>
      </trkpt>
      <trkpt lat="44.96926" lon="5.18784">
        <ele>632.88</ele>
        <time>2022-02-09T14:56:56.000Z</time>
      </trkpt>
      <trkpt lat="44.96922" lon="5.18796">
        <ele>634.41</ele>
        <time>2022-02-09T14:57:06.000Z</time>
      </trkpt>
      <trkpt lat="44.96916" lon="5.18806">
        <ele>636.15</ele>
        <time>2022-02-09T14:57:17.000Z</time>
      </trkpt>
      <trkpt lat="44.96909" lon="5.18818">
        <ele>638.55</ele>
        <time>2022-02-09T14:57:29.000Z</time>
      </trkpt>
      <trkpt lat="44.96902" lon="5.18827">
        <ele>641.39</ele>
        <time>2022-02-09T14:57:43.000Z</time>
      </trkpt>
      <trkpt lat="44.96894" lon="5.18833">
        <ele>643.55</ele>
        <time>2022-02-09T14:57:55.000Z</time>
      </trkpt>
      <trkpt lat="44.96899" lon="5.18845">
        <ele>647.16</ele>
        <time>2022-02-09T14:58:17.000Z</time>
      </trkpt>
      <trkpt lat="44.96907" lon="5.18851">
        <ele>648.63</ele>
        <time>2022-02-09T14:58:28.000Z</time>
      </trkpt>
      <trkpt lat="44.96918" lon="5.18853">
        <ele>650.11</ele>
        <time>2022-02-09T14:58:41.000Z</time>
      </trkpt>
      <trkpt lat="44.96927" lon="5.18857">
        <ele>652.14</ele>
        <time>2022-02-09T14:58:55.000Z</time>
      </trkpt>
      <trkpt lat="44.96936" lon="5.18859">
        <ele>653.42</ele>
        <time>2022-02-09T14:59:05.000Z</time>
      </trkpt>
      <trkpt lat="44.96944" lon="5.18851">
        <ele>657</ele>
        <time>2022-02-09T15:01:47.000Z</time>
      </trkpt>
      <trkpt lat="44.96952" lon="5.18843">
        <ele>656.98</ele>
        <time>2022-02-09T15:01:57.000Z</time>
      </trkpt>
      <trkpt lat="44.96959" lon="5.18852">
        <ele>659.58</ele>
        <time>2022-02-09T15:02:12.000Z</time>
      </trkpt>
      <trkpt lat="44.96968" lon="5.18854">
        <ele>662.85</ele>
        <time>2022-02-09T15:02:30.000Z</time>
      </trkpt>
      <trkpt lat="44.96977" lon="5.18852">
        <ele>665.1</ele>
        <time>2022-02-09T15:02:44.000Z</time>
      </trkpt>
      <trkpt lat="44.96987" lon="5.18852">
        <ele>668.31</ele>
        <time>2022-02-09T15:03:00.000Z</time>
      </trkpt>
      <trkpt lat="44.96996" lon="5.18851">
        <ele>670.93</ele>
        <time>2022-02-09T15:03:14.000Z</time>
      </trkpt>
      <trkpt lat="44.97005" lon="5.18855">
        <ele>673.4</ele>
        <time>2022-02-09T15:03:27.000Z</time>
      </trkpt>
      <trkpt lat="44.97014" lon="5.18856">
        <ele>676.64</ele>
        <time>2022-02-09T15:03:45.000Z</time>
      </trkpt>
      <trkpt lat="44.97023" lon="5.18855">
        <ele>678.96</ele>
        <time>2022-02-09T15:04:03.000Z</time>
      </trkpt>
      <trkpt lat="44.97033" lon="5.1885">
        <ele>679.79</ele>
        <time>2022-02-09T15:04:13.000Z</time>
      </trkpt>
      <trkpt lat="44.97043" lon="5.18848">
        <ele>680.92</ele>
        <time>2022-02-09T15:04:23.000Z</time>
      </trkpt>
      <trkpt lat="44.97052" lon="5.18847">
        <ele>683.8</ele>
        <time>2022-02-09T15:04:35.000Z</time>
      </trkpt>
      <trkpt lat="44.97061" lon="5.18845">
        <ele>685.36</ele>
        <time>2022-02-09T15:06:02.000Z</time>
      </trkpt>
      <trkpt lat="44.9707" lon="5.18842">
        <ele>686.49</ele>
        <time>2022-02-09T15:06:12.000Z</time>
      </trkpt>
      <trkpt lat="44.9708" lon="5.18844">
        <ele>688.81</ele>
        <time>2022-02-09T15:06:27.000Z</time>
      </trkpt>
      <trkpt lat="44.97089" lon="5.18843">
        <ele>691.2</ele>
        <time>2022-02-09T15:06:37.000Z</time>
      </trkpt>
      <trkpt lat="44.97099" lon="5.18843">
        <ele>693.37</ele>
        <time>2022-02-09T15:06:48.000Z</time>
      </trkpt>
      <trkpt lat="44.97109" lon="5.18841">
        <ele>694.78</ele>
        <time>2022-02-09T15:06:58.000Z</time>
      </trkpt>
      <trkpt lat="44.97118" lon="5.18843">
        <ele>696.23</ele>
        <time>2022-02-09T15:07:09.000Z</time>
      </trkpt>
      <trkpt lat="44.97128" lon="5.18841">
        <ele>696.82</ele>
        <time>2022-02-09T15:08:26.000Z</time>
      </trkpt>
      <trkpt lat="44.97136" lon="5.18837">
        <ele>698.16</ele>
        <time>2022-02-09T15:08:37.000Z</time>
      </trkpt>
      <trkpt lat="44.97146" lon="5.18837">
        <ele>700.56</ele>
        <time>2022-02-09T15:08:50.000Z</time>
      </trkpt>
      <trkpt lat="44.97155" lon="5.18842">
        <ele>702.19</ele>
        <time>2022-02-09T15:09:00.000Z</time>
      </trkpt>
      <trkpt lat="44.97163" lon="5.18837">
        <ele>704.49</ele>
        <time>2022-02-09T15:09:11.000Z</time>
      </trkpt>
      <trkpt lat="44.97172" lon="5.18832">
        <ele>706.96</ele>
        <time>2022-02-09T15:09:25.000Z</time>
      </trkpt>
      <trkpt lat="44.97181" lon="5.18824">
        <ele>710.58</ele>
        <time>2022-02-09T15:09:44.000Z</time>
      </trkpt>
      <trkpt lat="44.97188" lon="5.18815">
        <ele>713.5</ele>
        <time>2022-02-09T15:10:01.000Z</time>
      </trkpt>
      <trkpt lat="44.97194" lon="5.18807">
        <ele>716.34</ele>
        <time>2022-02-09T15:10:18.000Z</time>
      </trkpt>
      <trkpt lat="44.97201" lon="5.18797">
        <ele>718.2</ele>
        <time>2022-02-09T15:10:31.000Z</time>
      </trkpt>
      <trkpt lat="44.97205" lon="5.18784">
        <ele>721.14</ele>
        <time>2022-02-09T15:10:47.000Z</time>
      </trkpt>
      <trkpt lat="44.97211" lon="5.18773">
        <ele>724.24</ele>
        <time>2022-02-09T15:11:09.000Z</time>
      </trkpt>
      <trkpt lat="44.97216" lon="5.18763">
        <ele>728.31</ele>
        <time>2022-02-09T15:11:33.000Z</time>
      </trkpt>
      <trkpt lat="44.97224" lon="5.18756">
        <ele>732.45</ele>
        <time>2022-02-09T15:12:00.000Z</time>
      </trkpt>
      <trkpt lat="44.97233" lon="5.18748">
        <ele>735.09</ele>
        <time>2022-02-09T15:12:18.000Z</time>
      </trkpt>
      <trkpt lat="44.97241" lon="5.18742">
        <ele>738.4</ele>
        <time>2022-02-09T15:12:39.000Z</time>
      </trkpt>
      <trkpt lat="44.9725" lon="5.18738">
        <ele>742.75</ele>
        <time>2022-02-09T15:13:04.000Z</time>
      </trkpt>
      <trkpt lat="44.97259" lon="5.18735">
        <ele>747.88</ele>
        <time>2022-02-09T15:13:34.000Z</time>
      </trkpt>
      <trkpt lat="44.97255" lon="5.18747">
        <ele>752.22</ele>
        <time>2022-02-09T15:15:11.000Z</time>
      </trkpt>
      <trkpt lat="44.97264" lon="5.18748">
        <ele>757.94</ele>
        <time>2022-02-09T15:16:12.000Z</time>
      </trkpt>
      <trkpt lat="44.97268" lon="5.1876">
        <ele>762.4</ele>
        <time>2022-02-09T15:18:02.000Z</time>
      </trkpt>
      <trkpt lat="44.97268" lon="5.18773">
        <ele>767.13</ele>
        <time>2022-02-09T15:18:24.000Z</time>
      </trkpt>
      <trkpt lat="44.9727" lon="5.18785">
        <ele>771.11</ele>
        <time>2022-02-09T15:18:46.000Z</time>
      </trkpt>
      <trkpt lat="44.9728" lon="5.18779">
        <ele>774.62</ele>
        <time>2022-02-09T15:19:20.000Z</time>
      </trkpt>
      <trkpt lat="44.97288" lon="5.18777">
        <ele>777.84</ele>
        <time>2022-02-09T15:19:39.000Z</time>
      </trkpt>
      <trkpt lat="44.97296" lon="5.18769">
        <ele>781.42</ele>
        <time>2022-02-09T15:20:00.000Z</time>
      </trkpt>
      <trkpt lat="44.97305" lon="5.18764">
        <ele>785.54</ele>
        <time>2022-02-09T15:20:25.000Z</time>
      </trkpt>
      <trkpt lat="44.97314" lon="5.18759">
        <ele>790.12</ele>
        <time>2022-02-09T15:20:50.000Z</time>
      </trkpt>
      <trkpt lat="44.97318" lon="5.18747">
        <ele>792.9</ele>
        <time>2022-02-09T15:21:13.000Z</time>
      </trkpt>
      <trkpt lat="44.97321" lon="5.18734">
        <ele>794.24</ele>
        <time>2022-02-09T15:21:25.000Z</time>
      </trkpt>
      <trkpt lat="44.97324" lon="5.18721">
        <ele>796.41</ele>
        <time>2022-02-09T15:21:38.000Z</time>
      </trkpt>
      <trkpt lat="44.97327" lon="5.18709">
        <ele>797.53</ele>
        <time>2022-02-09T15:21:50.000Z</time>
      </trkpt>
      <trkpt lat="44.97331" lon="5.18697">
        <ele>799.61</ele>
        <time>2022-02-09T15:22:02.000Z</time>
      </trkpt>
      <trkpt lat="44.97333" lon="5.18684">
        <ele>801.87</ele>
        <time>2022-02-09T15:22:14.000Z</time>
      </trkpt>
      <trkpt lat="44.97335" lon="5.1867">
        <ele>804.39</ele>
        <time>2022-02-09T15:22:32.000Z</time>
      </trkpt>
      <trkpt lat="44.97333" lon="5.18656">
        <ele>806.28</ele>
        <time>2022-02-09T15:22:47.000Z</time>
      </trkpt>
      <trkpt lat="44.97328" lon="5.18645">
        <ele>805.89</ele>
        <time>2022-02-09T15:23:18.000Z</time>
      </trkpt>
      <trkpt lat="44.97336" lon="5.18637">
        <ele>802.98</ele>
        <time>2022-02-09T15:25:55.000Z</time>
      </trkpt>
      <trkpt lat="44.97345" lon="5.18636">
        <ele>799.8</ele>
        <time>2022-02-09T15:26:15.000Z</time>
      </trkpt>
      <trkpt lat="44.97354" lon="5.18639">
        <ele>798.32</ele>
        <time>2022-02-09T15:26:27.000Z</time>
      </trkpt>
      <trkpt lat="44.97364" lon="5.18643">
        <ele>797.25</ele>
        <time>2022-02-09T15:26:37.000Z</time>
      </trkpt>
      <trkpt lat="44.97372" lon="5.1865">
        <ele>794.93</ele>
        <time>2022-02-09T15:26:47.000Z</time>
      </trkpt>
      <trkpt lat="44.9738" lon="5.18653">
        <ele>792.85</ele>
        <time>2022-02-09T15:26:58.000Z</time>
      </trkpt>
      <trkpt lat="44.9739" lon="5.1865">
        <ele>789.68</ele>
        <time>2022-02-09T15:27:09.000Z</time>
      </trkpt>
      <trkpt lat="44.974" lon="5.18648">
        <ele>787.44</ele>
        <time>2022-02-09T15:27:20.000Z</time>
      </trkpt>
      <trkpt lat="44.97411" lon="5.18641">
        <ele>785.21</ele>
        <time>2022-02-09T15:27:30.000Z</time>
      </trkpt>
      <trkpt lat="44.97422" lon="5.18635">
        <ele>783.25</ele>
        <time>2022-02-09T15:27:40.000Z</time>
      </trkpt>
      <trkpt lat="44.97433" lon="5.18626">
        <ele>783.26</ele>
        <time>2022-02-09T15:27:50.000Z</time>
      </trkpt>
      <trkpt lat="44.97446" lon="5.1862">
        <ele>783.62</ele>
        <time>2022-02-09T15:28:00.000Z</time>
      </trkpt>
      <trkpt lat="44.97456" lon="5.18612">
        <ele>782.34</ele>
        <time>2022-02-09T15:28:10.000Z</time>
      </trkpt>
      <trkpt lat="44.97466" lon="5.18603">
        <ele>781.82</ele>
        <time>2022-02-09T15:28:20.000Z</time>
      </trkpt>
      <trkpt lat="44.97475" lon="5.18592">
        <ele>781.08</ele>
        <time>2022-02-09T15:28:30.000Z</time>
      </trkpt>
      <trkpt lat="44.97484" lon="5.18581">
        <ele>780.96</ele>
        <time>2022-02-09T15:28:40.000Z</time>
      </trkpt>
      <trkpt lat="44.97493" lon="5.18568">
        <ele>779.94</ele>
        <time>2022-02-09T15:28:50.000Z</time>
      </trkpt>
      <trkpt lat="44.97504" lon="5.18553">
        <ele>779.86</ele>
        <time>2022-02-09T15:29:00.000Z</time>
      </trkpt>
      <trkpt lat="44.97514" lon="5.18539">
        <ele>779.46</ele>
        <time>2022-02-09T15:29:10.000Z</time>
      </trkpt>
      <trkpt lat="44.97523" lon="5.18529">
        <ele>779.16</ele>
        <time>2022-02-09T15:29:20.000Z</time>
      </trkpt>
      <trkpt lat="44.97533" lon="5.18519">
        <ele>779.2</ele>
        <time>2022-02-09T15:29:30.000Z</time>
      </trkpt>
      <trkpt lat="44.97541" lon="5.18511">
        <ele>779.38</ele>
        <time>2022-02-09T15:29:40.000Z</time>
      </trkpt>
      <trkpt lat="44.9755" lon="5.18504">
        <ele>779.45</ele>
        <time>2022-02-09T15:29:53.000Z</time>
      </trkpt>
      <trkpt lat="44.97558" lon="5.18499">
        <ele>778.07</ele>
        <time>2022-02-09T15:30:03.000Z</time>
      </trkpt>
      <trkpt lat="44.97569" lon="5.18494">
        <ele>777.56</ele>
        <time>2022-02-09T15:30:13.000Z</time>
      </trkpt>
      <trkpt lat="44.97579" lon="5.1849">
        <ele>777.12</ele>
        <time>2022-02-09T15:30:24.000Z</time>
      </trkpt>
      <trkpt lat="44.97589" lon="5.18486">
        <ele>776.6</ele>
        <time>2022-02-09T15:30:34.000Z</time>
      </trkpt>
      <trkpt lat="44.97599" lon="5.18486">
        <ele>776.76</ele>
        <time>2022-02-09T15:30:45.000Z</time>
      </trkpt>
      <trkpt lat="44.97609" lon="5.18481">
        <ele>776.07</ele>
        <time>2022-02-09T15:30:57.000Z</time>
      </trkpt>
      <trkpt lat="44.97621" lon="5.18474">
        <ele>774.33</ele>
        <time>2022-02-09T15:31:07.000Z</time>
      </trkpt>
      <trkpt lat="44.9763" lon="5.1846">
        <ele>773.54</ele>
        <time>2022-02-09T15:31:17.000Z</time>
      </trkpt>
      <trkpt lat="44.97639" lon="5.1845">
        <ele>774.52</ele>
        <time>2022-02-09T15:31:27.000Z</time>
      </trkpt>
      <trkpt lat="44.97647" lon="5.18444">
        <ele>774.46</ele>
        <time>2022-02-09T15:31:57.000Z</time>
      </trkpt>
      <trkpt lat="44.97659" lon="5.18434">
        <ele>775.31</ele>
        <time>2022-02-09T15:32:07.000Z</time>
      </trkpt>
      <trkpt lat="44.97668" lon="5.18421">
        <ele>774.44</ele>
        <time>2022-02-09T15:32:17.000Z</time>
      </trkpt>
      <trkpt lat="44.97678" lon="5.18406">
        <ele>772.95</ele>
        <time>2022-02-09T15:32:27.000Z</time>
      </trkpt>
      <trkpt lat="44.97687" lon="5.18393">
        <ele>771.37</ele>
        <time>2022-02-09T15:32:37.000Z</time>
      </trkpt>
      <trkpt lat="44.97694" lon="5.18379">
        <ele>769.45</ele>
        <time>2022-02-09T15:32:47.000Z</time>
      </trkpt>
      <trkpt lat="44.97703" lon="5.18361">
        <ele>767.62</ele>
        <time>2022-02-09T15:32:57.000Z</time>
      </trkpt>
      <trkpt lat="44.97711" lon="5.18348">
        <ele>768.35</ele>
        <time>2022-02-09T15:33:07.000Z</time>
      </trkpt>
      <trkpt lat="44.97715" lon="5.18336">
        <ele>769.51</ele>
        <time>2022-02-09T15:33:17.000Z</time>
      </trkpt>
      <trkpt lat="44.97723" lon="5.1832">
        <ele>770.04</ele>
        <time>2022-02-09T15:33:27.000Z</time>
      </trkpt>
      <trkpt lat="44.97731" lon="5.18306">
        <ele>770.19</ele>
        <time>2022-02-09T15:33:37.000Z</time>
      </trkpt>
      <trkpt lat="44.97737" lon="5.18295">
        <ele>770.67</ele>
        <time>2022-02-09T15:33:48.000Z</time>
      </trkpt>
      <trkpt lat="44.97742" lon="5.18283">
        <ele>770.71</ele>
        <time>2022-02-09T15:33:58.000Z</time>
      </trkpt>
      <trkpt lat="44.97751" lon="5.18275">
        <ele>771.07</ele>
        <time>2022-02-09T15:34:08.000Z</time>
      </trkpt>
      <trkpt lat="44.97763" lon="5.18271">
        <ele>770.89</ele>
        <time>2022-02-09T15:34:18.000Z</time>
      </trkpt>
      <trkpt lat="44.97774" lon="5.1827">
        <ele>770.96</ele>
        <time>2022-02-09T15:34:28.000Z</time>
      </trkpt>
      <trkpt lat="44.97788" lon="5.18268">
        <ele>771.11</ele>
        <time>2022-02-09T15:34:38.000Z</time>
      </trkpt>
      <trkpt lat="44.97802" lon="5.18268">
        <ele>771.6</ele>
        <time>2022-02-09T15:34:48.000Z</time>
      </trkpt>
      <trkpt lat="44.97815" lon="5.18268">
        <ele>772.38</ele>
        <time>2022-02-09T15:34:58.000Z</time>
      </trkpt>
      <trkpt lat="44.97824" lon="5.18266">
        <ele>774.16</ele>
        <time>2022-02-09T15:35:08.000Z</time>
      </trkpt>
      <trkpt lat="44.97837" lon="5.18266">
        <ele>775.11</ele>
        <time>2022-02-09T15:35:18.000Z</time>
      </trkpt>
      <trkpt lat="44.97847" lon="5.18266">
        <ele>776.67</ele>
        <time>2022-02-09T15:35:29.000Z</time>
      </trkpt>
      <trkpt lat="44.97857" lon="5.18269">
        <ele>778.41</ele>
        <time>2022-02-09T15:35:39.000Z</time>
      </trkpt>
      <trkpt lat="44.97869" lon="5.1827">
        <ele>779.79</ele>
        <time>2022-02-09T15:35:49.000Z</time>
      </trkpt>
      <trkpt lat="44.97879" lon="5.18272">
        <ele>781.29</ele>
        <time>2022-02-09T15:35:59.000Z</time>
      </trkpt>
      <trkpt lat="44.97889" lon="5.18276">
        <ele>781.64</ele>
        <time>2022-02-09T15:36:09.000Z</time>
      </trkpt>
      <trkpt lat="44.97899" lon="5.18276">
        <ele>783.06</ele>
        <time>2022-02-09T15:36:19.000Z</time>
      </trkpt>
      <trkpt lat="44.97909" lon="5.18274">
        <ele>782.95</ele>
        <time>2022-02-09T15:36:30.000Z</time>
      </trkpt>
      <trkpt lat="44.97919" lon="5.18271">
        <ele>781.92</ele>
        <time>2022-02-09T15:36:40.000Z</time>
      </trkpt>
      <trkpt lat="44.97933" lon="5.18265">
        <ele>780.32</ele>
        <time>2022-02-09T15:36:50.000Z</time>
      </trkpt>
      <trkpt lat="44.97944" lon="5.18255">
        <ele>779.68</ele>
        <time>2022-02-09T15:37:00.000Z</time>
      </trkpt>
      <trkpt lat="44.97953" lon="5.18247">
        <ele>778.93</ele>
        <time>2022-02-09T15:37:10.000Z</time>
      </trkpt>
      <trkpt lat="44.97964" lon="5.18238">
        <ele>780.4</ele>
        <time>2022-02-09T15:37:20.000Z</time>
      </trkpt>
      <trkpt lat="44.97975" lon="5.18233">
        <ele>781.01</ele>
        <time>2022-02-09T15:37:30.000Z</time>
      </trkpt>
      <trkpt lat="44.97987" lon="5.18226">
        <ele>782.08</ele>
        <time>2022-02-09T15:37:40.000Z</time>
      </trkpt>
      <trkpt lat="44.97999" lon="5.18221">
        <ele>782.41</ele>
        <time>2022-02-09T15:37:50.000Z</time>
      </trkpt>
      <trkpt lat="44.98013" lon="5.18222">
        <ele>780.79</ele>
        <time>2022-02-09T15:38:00.000Z</time>
      </trkpt>
      <trkpt lat="44.98027" lon="5.18221">
        <ele>779.54</ele>
        <time>2022-02-09T15:38:10.000Z</time>
      </trkpt>
      <trkpt lat="44.98042" lon="5.1822">
        <ele>779.58</ele>
        <time>2022-02-09T15:38:20.000Z</time>
      </trkpt>
      <trkpt lat="44.98053" lon="5.18219">
        <ele>780.71</ele>
        <time>2022-02-09T15:38:30.000Z</time>
      </trkpt>
      <trkpt lat="44.98063" lon="5.18221">
        <ele>781.95</ele>
        <time>2022-02-09T15:38:40.000Z</time>
      </trkpt>
      <trkpt lat="44.98072" lon="5.18223">
        <ele>781.12</ele>
        <time>2022-02-09T15:39:55.000Z</time>
      </trkpt>
      <trkpt lat="44.98083" lon="5.18222">
        <ele>780.81</ele>
        <time>2022-02-09T15:40:05.000Z</time>
      </trkpt>
      <trkpt lat="44.98093" lon="5.18225">
        <ele>780.16</ele>
        <time>2022-02-09T15:40:15.000Z</time>
      </trkpt>
      <trkpt lat="44.98107" lon="5.18226">
        <ele>779.83</ele>
        <time>2022-02-09T15:40:25.000Z</time>
      </trkpt>
      <trkpt lat="44.98117" lon="5.1823">
        <ele>779.75</ele>
        <time>2022-02-09T15:40:35.000Z</time>
      </trkpt>
      <trkpt lat="44.98129" lon="5.18234">
        <ele>778.29</ele>
        <time>2022-02-09T15:40:45.000Z</time>
      </trkpt>
      <trkpt lat="44.9814" lon="5.18237">
        <ele>776.73</ele>
        <time>2022-02-09T15:40:55.000Z</time>
      </trkpt>
      <trkpt lat="44.98152" lon="5.18237">
        <ele>774.81</ele>
        <time>2022-02-09T15:41:05.000Z</time>
      </trkpt>
      <trkpt lat="44.98162" lon="5.18235">
        <ele>772.28</ele>
        <time>2022-02-09T15:41:18.000Z</time>
      </trkpt>
      <trkpt lat="44.98171" lon="5.18233">
        <ele>770.06</ele>
        <time>2022-02-09T15:41:30.000Z</time>
      </trkpt>
      <trkpt lat="44.9818" lon="5.18231">
        <ele>767.05</ele>
        <time>2022-02-09T15:41:46.000Z</time>
      </trkpt>
      <trkpt lat="44.9819" lon="5.18231">
        <ele>764.09</ele>
        <time>2022-02-09T15:42:01.000Z</time>
      </trkpt>
      <trkpt lat="44.982" lon="5.18234">
        <ele>762.51</ele>
        <time>2022-02-09T15:42:43.000Z</time>
      </trkpt>
      <trkpt lat="44.98209" lon="5.18235">
        <ele>760.48</ele>
        <time>2022-02-09T15:42:57.000Z</time>
      </trkpt>
      <trkpt lat="44.98219" lon="5.18233">
        <ele>757.54</ele>
        <time>2022-02-09T15:43:12.000Z</time>
      </trkpt>
      <trkpt lat="44.98228" lon="5.1823">
        <ele>755.66</ele>
        <time>2022-02-09T15:43:23.000Z</time>
      </trkpt>
      <trkpt lat="44.98238" lon="5.18228">
        <ele>751.99</ele>
        <time>2022-02-09T15:43:42.000Z</time>
      </trkpt>
      <trkpt lat="44.98248" lon="5.18225">
        <ele>748.24</ele>
        <time>2022-02-09T15:43:57.000Z</time>
      </trkpt>
      <trkpt lat="44.98258" lon="5.18222">
        <ele>744.12</ele>
        <time>2022-02-09T15:44:14.000Z</time>
      </trkpt>
      <trkpt lat="44.98268" lon="5.18222">
        <ele>739.54</ele>
        <time>2022-02-09T15:44:32.000Z</time>
      </trkpt>
      <trkpt lat="44.98277" lon="5.18218">
        <ele>735.37</ele>
        <time>2022-02-09T15:44:47.000Z</time>
      </trkpt>
      <trkpt lat="44.98285" lon="5.18212">
        <ele>732.98</ele>
        <time>2022-02-09T15:44:59.000Z</time>
      </trkpt>
      <trkpt lat="44.98293" lon="5.18205">
        <ele>729.15</ele>
        <time>2022-02-09T15:45:12.000Z</time>
      </trkpt>
      <trkpt lat="44.98301" lon="5.18197">
        <ele>726.08</ele>
        <time>2022-02-09T15:45:24.000Z</time>
      </trkpt>
      <trkpt lat="44.9831" lon="5.18189">
        <ele>722.18</ele>
        <time>2022-02-09T15:45:40.000Z</time>
      </trkpt>
      <trkpt lat="44.98317" lon="5.1818">
        <ele>719.02</ele>
        <time>2022-02-09T15:45:53.000Z</time>
      </trkpt>
      <trkpt lat="44.98325" lon="5.18172">
        <ele>714.61</ele>
        <time>2022-02-09T15:46:10.000Z</time>
      </trkpt>
      <trkpt lat="44.98333" lon="5.18164">
        <ele>710.96</ele>
        <time>2022-02-09T15:46:29.000Z</time>
      </trkpt>
      <trkpt lat="44.98341" lon="5.18157">
        <ele>706.7</ele>
        <time>2022-02-09T15:46:43.000Z</time>
      </trkpt>
      <trkpt lat="44.98349" lon="5.1815">
        <ele>703.03</ele>
        <time>2022-02-09T15:46:54.000Z</time>
      </trkpt>
      <trkpt lat="44.98358" lon="5.18141">
        <ele>699.11</ele>
        <time>2022-02-09T15:47:05.000Z</time>
      </trkpt>
      <trkpt lat="44.98366" lon="5.18133">
        <ele>695.51</ele>
        <time>2022-02-09T15:47:17.000Z</time>
      </trkpt>
      <trkpt lat="44.98375" lon="5.18126">
        <ele>691.32</ele>
        <time>2022-02-09T15:47:31.000Z</time>
      </trkpt>
      <trkpt lat="44.98383" lon="5.18121">
        <ele>687.19</ele>
        <time>2022-02-09T15:49:05.000Z</time>
      </trkpt>
      <trkpt lat="44.98392" lon="5.18117">
        <ele>683.62</ele>
        <time>2022-02-09T15:49:22.000Z</time>
      </trkpt>
      <trkpt lat="44.98401" lon="5.18111">
        <ele>678.54</ele>
        <time>2022-02-09T15:49:58.000Z</time>
      </trkpt>
      <trkpt lat="44.98409" lon="5.18105">
        <ele>673.54</ele>
        <time>2022-02-09T15:50:10.000Z</time>
      </trkpt>
      <trkpt lat="44.98419" lon="5.181">
        <ele>670.37</ele>
        <time>2022-02-09T15:50:20.000Z</time>
      </trkpt>
      <trkpt lat="44.98429" lon="5.18097">
        <ele>666.06</ele>
        <time>2022-02-09T15:50:31.000Z</time>
      </trkpt>
      <trkpt lat="44.98438" lon="5.18094">
        <ele>662.44</ele>
        <time>2022-02-09T15:50:42.000Z</time>
      </trkpt>
      <trkpt lat="44.98447" lon="5.18089">
        <ele>658.96</ele>
        <time>2022-02-09T15:50:52.000Z</time>
      </trkpt>
      <trkpt lat="44.98457" lon="5.18086">
        <ele>655.37</ele>
        <time>2022-02-09T15:51:02.000Z</time>
      </trkpt>
      <trkpt lat="44.98466" lon="5.18085">
        <ele>651.33</ele>
        <time>2022-02-09T15:51:13.000Z</time>
      </trkpt>
      <trkpt lat="44.98475" lon="5.1808">
        <ele>648.37</ele>
        <time>2022-02-09T15:51:23.000Z</time>
      </trkpt>
      <trkpt lat="44.98486" lon="5.18076">
        <ele>644.63</ele>
        <time>2022-02-09T15:51:35.000Z</time>
      </trkpt>
      <trkpt lat="44.98496" lon="5.18072">
        <ele>641.44</ele>
        <time>2022-02-09T15:51:45.000Z</time>
      </trkpt>
      <trkpt lat="44.98508" lon="5.18069">
        <ele>638.29</ele>
        <time>2022-02-09T15:51:55.000Z</time>
      </trkpt>
      <trkpt lat="44.98523" lon="5.18063">
        <ele>634.64</ele>
        <time>2022-02-09T15:52:05.000Z</time>
      </trkpt>
      <trkpt lat="44.98537" lon="5.18055">
        <ele>631.45</ele>
        <time>2022-02-09T15:52:15.000Z</time>
      </trkpt>
      <trkpt lat="44.98549" lon="5.18047">
        <ele>628.16</ele>
        <time>2022-02-09T15:52:25.000Z</time>
      </trkpt>
      <trkpt lat="44.98561" lon="5.18038">
        <ele>625.79</ele>
        <time>2022-02-09T15:52:35.000Z</time>
      </trkpt>
      <trkpt lat="44.98571" lon="5.1803">
        <ele>623</ele>
        <time>2022-02-09T15:52:45.000Z</time>
      </trkpt>
      <trkpt lat="44.9858" lon="5.18021">
        <ele>620.91</ele>
        <time>2022-02-09T15:52:55.000Z</time>
      </trkpt>
      <trkpt lat="44.98587" lon="5.18011">
        <ele>616.95</ele>
        <time>2022-02-09T15:53:05.000Z</time>
      </trkpt>
      <trkpt lat="44.98595" lon="5.17998">
        <ele>613.66</ele>
        <time>2022-02-09T15:53:15.000Z</time>
      </trkpt>
      <trkpt lat="44.98602" lon="5.17982">
        <ele>610.88</ele>
        <time>2022-02-09T15:53:25.000Z</time>
      </trkpt>
      <trkpt lat="44.98608" lon="5.17969">
        <ele>608.02</ele>
        <time>2022-02-09T15:53:35.000Z</time>
      </trkpt>
      <trkpt lat="44.98616" lon="5.17954">
        <ele>605.61</ele>
        <time>2022-02-09T15:53:45.000Z</time>
      </trkpt>
      <trkpt lat="44.98624" lon="5.17944">
        <ele>603.71</ele>
        <time>2022-02-09T15:53:55.000Z</time>
      </trkpt>
      <trkpt lat="44.9863" lon="5.17933">
        <ele>602.89</ele>
        <time>2022-02-09T15:54:07.000Z</time>
      </trkpt>
      <trkpt lat="44.98637" lon="5.17924">
        <ele>601.36</ele>
        <time>2022-02-09T15:54:22.000Z</time>
      </trkpt>
      <trkpt lat="44.98647" lon="5.17912">
        <ele>599.67</ele>
        <time>2022-02-09T15:54:32.000Z</time>
      </trkpt>
      <trkpt lat="44.98653" lon="5.179">
        <ele>599.03</ele>
        <time>2022-02-09T15:54:42.000Z</time>
      </trkpt>
      <trkpt lat="44.98661" lon="5.17887">
        <ele>599.35</ele>
        <time>2022-02-09T15:54:52.000Z</time>
      </trkpt>
      <trkpt lat="44.98669" lon="5.17874">
        <ele>598.68</ele>
        <time>2022-02-09T15:55:02.000Z</time>
      </trkpt>
      <trkpt lat="44.98677" lon="5.1786">
        <ele>597.5</ele>
        <time>2022-02-09T15:55:12.000Z</time>
      </trkpt>
      <trkpt lat="44.98685" lon="5.17849">
        <ele>595.4</ele>
        <time>2022-02-09T15:55:22.000Z</time>
      </trkpt>
      <trkpt lat="44.98694" lon="5.17833">
        <ele>593.98</ele>
        <time>2022-02-09T15:55:32.000Z</time>
      </trkpt>
      <trkpt lat="44.98702" lon="5.1782">
        <ele>592.16</ele>
        <time>2022-02-09T15:55:42.000Z</time>
      </trkpt>
      <trkpt lat="44.98708" lon="5.17807">
        <ele>590.35</ele>
        <time>2022-02-09T15:55:52.000Z</time>
      </trkpt>
      <trkpt lat="44.98716" lon="5.17796">
        <ele>588.64</ele>
        <time>2022-02-09T15:56:02.000Z</time>
      </trkpt>
      <trkpt lat="44.98724" lon="5.17785">
        <ele>587.41</ele>
        <time>2022-02-09T15:56:12.000Z</time>
      </trkpt>
      <trkpt lat="44.98732" lon="5.17776">
        <ele>587.21</ele>
        <time>2022-02-09T15:56:23.000Z</time>
      </trkpt>
      <trkpt lat="44.98743" lon="5.17763">
        <ele>586.49</ele>
        <time>2022-02-09T15:56:33.000Z</time>
      </trkpt>
      <trkpt lat="44.98752" lon="5.17754">
        <ele>584.31</ele>
        <time>2022-02-09T15:56:44.000Z</time>
      </trkpt>
      <trkpt lat="44.98761" lon="5.17746">
        <ele>581.26</ele>
        <time>2022-02-09T15:56:54.000Z</time>
      </trkpt>
      <trkpt lat="44.9877" lon="5.17737">
        <ele>578.5</ele>
        <time>2022-02-09T15:57:04.000Z</time>
      </trkpt>
      <trkpt lat="44.98779" lon="5.17734">
        <ele>576.48</ele>
        <time>2022-02-09T15:57:15.000Z</time>
      </trkpt>
      <trkpt lat="44.98789" lon="5.17738">
        <ele>574.77</ele>
        <time>2022-02-09T15:57:26.000Z</time>
      </trkpt>
      <trkpt lat="44.988" lon="5.17741">
        <ele>572.29</ele>
        <time>2022-02-09T15:57:36.000Z</time>
      </trkpt>
      <trkpt lat="44.9881" lon="5.17745">
        <ele>570.14</ele>
        <time>2022-02-09T15:57:46.000Z</time>
      </trkpt>
      <trkpt lat="44.98823" lon="5.17753">
        <ele>568.16</ele>
        <time>2022-02-09T15:57:56.000Z</time>
      </trkpt>
      <trkpt lat="44.98836" lon="5.17764">
        <ele>565.6</ele>
        <time>2022-02-09T15:58:06.000Z</time>
      </trkpt>
      <trkpt lat="44.98848" lon="5.17771">
        <ele>563.12</ele>
        <time>2022-02-09T15:58:16.000Z</time>
      </trkpt>
      <trkpt lat="44.98861" lon="5.17778">
        <ele>560.62</ele>
        <time>2022-02-09T15:58:26.000Z</time>
      </trkpt>
      <trkpt lat="44.98871" lon="5.17786">
        <ele>557.78</ele>
        <time>2022-02-09T15:58:36.000Z</time>
      </trkpt>
      <trkpt lat="44.98881" lon="5.17793">
        <ele>553.94</ele>
        <time>2022-02-09T15:58:46.000Z</time>
      </trkpt>
      <trkpt lat="44.98893" lon="5.17799">
        <ele>550.23</ele>
        <time>2022-02-09T15:58:56.000Z</time>
      </trkpt>
      <trkpt lat="44.98904" lon="5.17808">
        <ele>547.52</ele>
        <time>2022-02-09T15:59:06.000Z</time>
      </trkpt>
      <trkpt lat="44.98914" lon="5.17819">
        <ele>545.6</ele>
        <time>2022-02-09T15:59:16.000Z</time>
      </trkpt>
      <trkpt lat="44.98924" lon="5.17827">
        <ele>542.34</ele>
        <time>2022-02-09T15:59:26.000Z</time>
      </trkpt>
      <trkpt lat="44.98934" lon="5.17838">
        <ele>538.66</ele>
        <time>2022-02-09T15:59:36.000Z</time>
      </trkpt>
      <trkpt lat="44.98942" lon="5.17847">
        <ele>535.42</ele>
        <time>2022-02-09T15:59:46.000Z</time>
      </trkpt>
      <trkpt lat="44.98949" lon="5.17858">
        <ele>532.37</ele>
        <time>2022-02-09T15:59:56.000Z</time>
      </trkpt>
      <trkpt lat="44.98955" lon="5.17869">
        <ele>529.37</ele>
        <time>2022-02-09T16:00:06.000Z</time>
      </trkpt>
      <trkpt lat="44.98961" lon="5.17881">
        <ele>526.29</ele>
        <time>2022-02-09T16:00:16.000Z</time>
      </trkpt>
      <trkpt lat="44.98968" lon="5.17894">
        <ele>523.37</ele>
        <time>2022-02-09T16:00:26.000Z</time>
      </trkpt>
      <trkpt lat="44.98973" lon="5.17905">
        <ele>522.82</ele>
        <time>2022-02-09T16:00:54.000Z</time>
      </trkpt>
      <trkpt lat="44.98979" lon="5.17917">
        <ele>520.49</ele>
        <time>2022-02-09T16:01:04.000Z</time>
      </trkpt>
      <trkpt lat="44.98987" lon="5.17926">
        <ele>517.91</ele>
        <time>2022-02-09T16:01:14.000Z</time>
      </trkpt>
      <trkpt lat="44.98989" lon="5.17939">
        <ele>516.88</ele>
        <time>2022-02-09T16:02:04.000Z</time>
      </trkpt>
      <trkpt lat="44.98986" lon="5.17951">
        <ele>516.99</ele>
        <time>2022-02-09T16:02:21.000Z</time>
      </trkpt>
      <trkpt lat="44.98991" lon="5.17963">
        <ele>515.77</ele>
        <time>2022-02-09T16:02:49.000Z</time>
      </trkpt>
      <trkpt lat="44.98998" lon="5.1797">
        <ele>513.25</ele>
        <time>2022-02-09T16:03:00.000Z</time>
      </trkpt>
      <trkpt lat="44.99005" lon="5.17982">
        <ele>510.6</ele>
        <time>2022-02-09T16:03:10.000Z</time>
      </trkpt>
      <trkpt lat="44.99011" lon="5.17992">
        <ele>507.64</ele>
        <time>2022-02-09T16:03:20.000Z</time>
      </trkpt>
      <trkpt lat="44.99018" lon="5.18005">
        <ele>504.88</ele>
        <time>2022-02-09T16:03:30.000Z</time>
      </trkpt>
      <trkpt lat="44.99025" lon="5.18015">
        <ele>503.05</ele>
        <time>2022-02-09T16:04:03.000Z</time>
      </trkpt>
      <trkpt lat="44.99027" lon="5.18029">
        <ele>500.43</ele>
        <time>2022-02-09T16:04:13.000Z</time>
      </trkpt>
      <trkpt lat="44.99028" lon="5.18044">
        <ele>496.54</ele>
        <time>2022-02-09T16:04:25.000Z</time>
      </trkpt>
      <trkpt lat="44.99033" lon="5.18055">
        <ele>493.94</ele>
        <time>2022-02-09T16:04:35.000Z</time>
      </trkpt>
      <trkpt lat="44.9904" lon="5.18066">
        <ele>491.73</ele>
        <time>2022-02-09T16:04:45.000Z</time>
      </trkpt>
      <trkpt lat="44.99048" lon="5.18073">
        <ele>490.06</ele>
        <time>2022-02-09T16:05:11.000Z</time>
      </trkpt>
      <trkpt lat="44.99054" lon="5.18064">
        <ele>488.09</ele>
        <time>2022-02-09T16:05:21.000Z</time>
      </trkpt>
      <trkpt lat="44.99063" lon="5.18061">
        <ele>486.89</ele>
        <time>2022-02-09T16:05:32.000Z</time>
      </trkpt>
      <trkpt lat="44.99075" lon="5.18069">
        <ele>484.44</ele>
        <time>2022-02-09T16:05:42.000Z</time>
      </trkpt>
      <trkpt lat="44.99086" lon="5.18082">
        <ele>482.73</ele>
        <time>2022-02-09T16:05:52.000Z</time>
      </trkpt>
      <trkpt lat="44.99099" lon="5.18093">
        <ele>481.17</ele>
        <time>2022-02-09T16:06:02.000Z</time>
      </trkpt>
      <trkpt lat="44.9911" lon="5.18107">
        <ele>479.44</ele>
        <time>2022-02-09T16:06:12.000Z</time>
      </trkpt>
      <trkpt lat="44.99121" lon="5.18122">
        <ele>478.16</ele>
        <time>2022-02-09T16:06:22.000Z</time>
      </trkpt>
      <trkpt lat="44.99131" lon="5.18134">
        <ele>477.19</ele>
        <time>2022-02-09T16:06:32.000Z</time>
      </trkpt>
      <trkpt lat="44.99134" lon="5.18147">
        <ele>475.99</ele>
        <time>2022-02-09T16:06:55.000Z</time>
      </trkpt>
      <trkpt lat="44.99144" lon="5.18156">
        <ele>474.88</ele>
        <time>2022-02-09T16:07:05.000Z</time>
      </trkpt>
      <trkpt lat="44.99153" lon="5.1816">
        <ele>474.54</ele>
        <time>2022-02-09T16:07:44.000Z</time>
      </trkpt>
      <trkpt lat="44.99163" lon="5.18163">
        <ele>473.1</ele>
        <time>2022-02-09T16:07:54.000Z</time>
      </trkpt>
      <trkpt lat="44.99177" lon="5.18159">
        <ele>470.87</ele>
        <time>2022-02-09T16:08:04.000Z</time>
      </trkpt>
      <trkpt lat="44.99191" lon="5.18159">
        <ele>469.28</ele>
        <time>2022-02-09T16:08:14.000Z</time>
      </trkpt>
      <trkpt lat="44.992" lon="5.18162">
        <ele>468.66</ele>
        <time>2022-02-09T16:08:35.000Z</time>
      </trkpt>
      <trkpt lat="44.99212" lon="5.1817">
        <ele>466.52</ele>
        <time>2022-02-09T16:08:45.000Z</time>
      </trkpt>
      <trkpt lat="44.99224" lon="5.18178">
        <ele>464.78</ele>
        <time>2022-02-09T16:08:55.000Z</time>
      </trkpt>
      <trkpt lat="44.99235" lon="5.18191">
        <ele>463.19</ele>
        <time>2022-02-09T16:09:05.000Z</time>
      </trkpt>
      <trkpt lat="44.99246" lon="5.18204">
        <ele>461.98</ele>
        <time>2022-02-09T16:09:15.000Z</time>
      </trkpt>
      <trkpt lat="44.99257" lon="5.18215">
        <ele>460.64</ele>
        <time>2022-02-09T16:09:25.000Z</time>
      </trkpt>
      <trkpt lat="44.99261" lon="5.18227">
        <ele>458.95</ele>
        <time>2022-02-09T16:09:39.000Z</time>
      </trkpt>
      <trkpt lat="44.99268" lon="5.18236">
        <ele>458.53</ele>
        <time>2022-02-09T16:09:56.000Z</time>
      </trkpt>
      <trkpt lat="44.99275" lon="5.18249">
        <ele>457.29</ele>
        <time>2022-02-09T16:10:06.000Z</time>
      </trkpt>
      <trkpt lat="44.99284" lon="5.18262">
        <ele>457.45</ele>
        <time>2022-02-09T16:10:16.000Z</time>
      </trkpt>
      <trkpt lat="44.99289" lon="5.18278">
        <ele>456.91</ele>
        <time>2022-02-09T16:10:26.000Z</time>
      </trkpt>
      <trkpt lat="44.99293" lon="5.18298">
        <ele>456.23</ele>
        <time>2022-02-09T16:10:36.000Z</time>
      </trkpt>
      <trkpt lat="44.99296" lon="5.18317">
        <ele>455.74</ele>
        <time>2022-02-09T16:10:46.000Z</time>
      </trkpt>
      <trkpt lat="44.99297" lon="5.18333">
        <ele>454.87</ele>
        <time>2022-02-09T16:10:56.000Z</time>
      </trkpt>
      <trkpt lat="44.99294" lon="5.18355">
        <ele>453.54</ele>
        <time>2022-02-09T16:11:06.000Z</time>
      </trkpt>
      <trkpt lat="44.99293" lon="5.18373">
        <ele>452.57</ele>
        <time>2022-02-09T16:11:16.000Z</time>
      </trkpt>
      <trkpt lat="44.99293" lon="5.18391">
        <ele>452.06</ele>
        <time>2022-02-09T16:11:26.000Z</time>
      </trkpt>
      <trkpt lat="44.9929" lon="5.18413">
        <ele>451.34</ele>
        <time>2022-02-09T16:11:36.000Z</time>
      </trkpt>
      <trkpt lat="44.99293" lon="5.184">
        <ele>451.74</ele>
        <time>2022-02-09T16:11:48.000Z</time>
      </trkpt>
      <trkpt lat="44.99291" lon="5.18413">
        <ele>451.74</ele>
        <time>2022-02-09T16:12:36.000Z</time>
      </trkpt>
      <trkpt lat="44.99287" lon="5.18433">
        <ele>451.13</ele>
        <time>2022-02-09T16:12:46.000Z</time>
      </trkpt>
      <trkpt lat="44.99285" lon="5.18453">
        <ele>450.79</ele>
        <time>2022-02-09T16:12:56.000Z</time>
      </trkpt>
      <trkpt lat="44.99285" lon="5.18472">
        <ele>450.22</ele>
        <time>2022-02-09T16:13:06.000Z</time>
      </trkpt>
      <trkpt lat="44.99283" lon="5.18486">
        <ele>449.93</ele>
        <time>2022-02-09T16:13:16.000Z</time>
      </trkpt>
      <trkpt lat="44.99277" lon="5.18497">
        <ele>452.1</ele>
        <time>2022-02-09T16:13:43.000Z</time>
      </trkpt>
      <trkpt lat="44.99284" lon="5.18489">
        <ele>450.96</ele>
        <time>2022-02-09T16:14:07.000Z</time>
      </trkpt>
      <trkpt lat="44.99294" lon="5.18485">
        <ele>450.4</ele>
        <time>2022-02-09T16:14:17.000Z</time>
      </trkpt>
      <trkpt lat="44.99305" lon="5.1849">
        <ele>447.45</ele>
        <time>2022-02-09T16:14:27.000Z</time>
      </trkpt>
      <trkpt lat="44.99316" lon="5.18493">
        <ele>444.95</ele>
        <time>2022-02-09T16:14:37.000Z</time>
      </trkpt>
      <trkpt lat="44.99325" lon="5.18492">
        <ele>441.97</ele>
        <time>2022-02-09T16:14:47.000Z</time>
      </trkpt>
      <trkpt lat="44.99337" lon="5.1849">
        <ele>439.14</ele>
        <time>2022-02-09T16:14:57.000Z</time>
      </trkpt>
      <trkpt lat="44.99348" lon="5.18491">
        <ele>435.96</ele>
        <time>2022-02-09T16:15:07.000Z</time>
      </trkpt>
      <trkpt lat="44.99361" lon="5.18492">
        <ele>433.31</ele>
        <time>2022-02-09T16:15:17.000Z</time>
      </trkpt>
      <trkpt lat="44.99374" lon="5.18494">
        <ele>430.54</ele>
        <time>2022-02-09T16:15:27.000Z</time>
      </trkpt>
      <trkpt lat="44.9939" lon="5.18497">
        <ele>428.29</ele>
        <time>2022-02-09T16:15:37.000Z</time>
      </trkpt>
      <trkpt lat="44.99402" lon="5.18499">
        <ele>425.98</ele>
        <time>2022-02-09T16:15:47.000Z</time>
      </trkpt>
      <trkpt lat="44.99411" lon="5.18504">
        <ele>424.73</ele>
        <time>2022-02-09T16:16:24.000Z</time>
      </trkpt>
      <trkpt lat="44.99423" lon="5.18507">
        <ele>422.2</ele>
        <time>2022-02-09T16:16:34.000Z</time>
      </trkpt>
      <trkpt lat="44.99438" lon="5.18505">
        <ele>419.36</ele>
        <time>2022-02-09T16:16:44.000Z</time>
      </trkpt>
      <trkpt lat="44.9945" lon="5.18498">
        <ele>416.68</ele>
        <time>2022-02-09T16:16:54.000Z</time>
      </trkpt>
      <trkpt lat="44.99463" lon="5.18494">
        <ele>414.5</ele>
        <time>2022-02-09T16:17:04.000Z</time>
      </trkpt>
      <trkpt lat="44.99476" lon="5.18488">
        <ele>411.84</ele>
        <time>2022-02-09T16:17:14.000Z</time>
      </trkpt>
      <trkpt lat="44.99488" lon="5.18481">
        <ele>409.24</ele>
        <time>2022-02-09T16:17:24.000Z</time>
      </trkpt>
      <trkpt lat="44.99498" lon="5.18475">
        <ele>406.61</ele>
        <time>2022-02-09T16:17:34.000Z</time>
      </trkpt>
      <trkpt lat="44.9951" lon="5.18473">
        <ele>404.51</ele>
        <time>2022-02-09T16:17:44.000Z</time>
      </trkpt>
      <trkpt lat="44.9952" lon="5.18463">
        <ele>402.85</ele>
        <time>2022-02-09T16:17:54.000Z</time>
      </trkpt>
      <trkpt lat="44.99531" lon="5.18452">
        <ele>402.09</ele>
        <time>2022-02-09T16:18:04.000Z</time>
      </trkpt>
      <trkpt lat="44.99543" lon="5.18449">
        <ele>400.27</ele>
        <time>2022-02-09T16:18:14.000Z</time>
      </trkpt>
      <trkpt lat="44.99556" lon="5.18443">
        <ele>398.07</ele>
        <time>2022-02-09T16:18:24.000Z</time>
      </trkpt>
      <trkpt lat="44.99568" lon="5.18441">
        <ele>395.66</ele>
        <time>2022-02-09T16:18:34.000Z</time>
      </trkpt>
      <trkpt lat="44.99578" lon="5.1844">
        <ele>393.6</ele>
        <time>2022-02-09T16:18:44.000Z</time>
      </trkpt>
      <trkpt lat="44.9959" lon="5.18433">
        <ele>391.82</ele>
        <time>2022-02-09T16:18:54.000Z</time>
      </trkpt>
      <trkpt lat="44.99599" lon="5.18427">
        <ele>390.05</ele>
        <time>2022-02-09T16:19:09.000Z</time>
      </trkpt>
      <trkpt lat="44.99613" lon="5.18427">
        <ele>388.65</ele>
        <time>2022-02-09T16:19:19.000Z</time>
      </trkpt>
      <trkpt lat="44.99625" lon="5.18426">
        <ele>388.02</ele>
        <time>2022-02-09T16:19:29.000Z</time>
      </trkpt>
      <trkpt lat="44.99638" lon="5.18426">
        <ele>387.22</ele>
        <time>2022-02-09T16:19:39.000Z</time>
      </trkpt>
      <trkpt lat="44.99652" lon="5.18423">
        <ele>386.83</ele>
        <time>2022-02-09T16:19:49.000Z</time>
      </trkpt>
      <trkpt lat="44.99662" lon="5.18419">
        <ele>386.51</ele>
        <time>2022-02-09T16:19:59.000Z</time>
      </trkpt>
      <trkpt lat="44.99669" lon="5.18429">
        <ele>386.46</ele>
        <time>2022-02-09T16:20:11.000Z</time>
      </trkpt>
      <trkpt lat="44.99675" lon="5.18439">
        <ele>385.61</ele>
        <time>2022-02-09T16:20:21.000Z</time>
      </trkpt>
      <trkpt lat="44.99688" lon="5.18437">
        <ele>384.25</ele>
        <time>2022-02-09T16:20:31.000Z</time>
      </trkpt>
      <trkpt lat="44.99694" lon="5.18428">
        <ele>384.4</ele>
        <time>2022-02-09T16:21:57.000Z</time>
      </trkpt>
      <trkpt lat="44.99695" lon="5.18428">
        <ele>384.2</ele>
        <time>2022-02-09T16:22:20.000Z</time>
      </trkpt>
    </trkseg>
  </trk>
</gpx>